KLM624 KATL-EHAM
Flight info
| Callsign | KLM624 |
|---|---|
| Flight time | 7h 36m |
| Altitude | 33000 |
| Route | PLMMR3 BURGG Q22 FOXWD DCT ALLEX/N0496F350 N565B TUDEP/M086F350 DCT 52N050W 53N040W 54N030W 55N020W DCT RESNO DCT NETKI/N0499F370 DCT NIBOG DCT ELBOB DCT REMSI DCT BELOX L603 LAMSO |
| Aircraft | B77W/H-SDE1E2E3FGHIJ2J3J4J5M1RWXY/LB1D1 |
Departure
| Time | 2026-05-05 15:18 |
|---|---|
| Airport | Hartsfield Jackson Atlanta International Airport (KATL) |
Arrival
| Time | 2026-05-05 22:54 |
|---|---|
| Airport | Amsterdam Airport Schiphol (EHAM) |
| Time | Latitude | Longitude | Altitude | Speed | Heading |
|---|---|---|---|---|---|
| 2026-05-05 15:02 | 33.64008 | -84.42332 | 1040 ft | 0 kts | 359° |
| 2026-05-05 15:11 | 33.63995 | -84.42331 | 1040 ft | 2 kts | 358° |
| 2026-05-05 15:11 | 33.63978 | -84.42330 | 1040 ft | 2 kts | 356° |
| 2026-05-05 15:11 | 33.63962 | -84.42329 | 1040 ft | 2 kts | 352° |
| 2026-05-05 15:11 | 33.63946 | -84.42325 | 1040 ft | 2 kts | 340° |
| 2026-05-05 15:12 | 33.63933 | -84.42314 | 1040 ft | 2 kts | 272° |
| 2026-05-05 15:12 | 33.63932 | -84.42308 | 1040 ft | 0 kts | 270° |
| 2026-05-05 15:13 | 33.63923 | -84.42324 | 1040 ft | 5 kts | 219° |
| 2026-05-05 15:14 | 33.63862 | -84.42335 | 1040 ft | 13 kts | 175° |
| 2026-05-05 15:14 | 33.63794 | -84.42267 | 1040 ft | 13 kts | 133° |
| 2026-05-05 15:14 | 33.63709 | -84.42237 | 1040 ft | 13 kts | 177° |
| 2026-05-05 15:14 | 33.63657 | -84.42162 | 1041 ft | 14 kts | 92° |
| 2026-05-05 15:15 | 33.63656 | -84.42013 | 1040 ft | 20 kts | 89° |
| 2026-05-05 15:15 | 33.63656 | -84.41844 | 1040 ft | 20 kts | 90° |
| 2026-05-05 15:15 | 33.63656 | -84.41675 | 1040 ft | 20 kts | 90° |
| 2026-05-05 15:15 | 33.63656 | -84.41506 | 1040 ft | 20 kts | 89° |
| 2026-05-05 15:16 | 33.63657 | -84.41337 | 1040 ft | 20 kts | 90° |
| 2026-05-05 15:16 | 33.63656 | -84.41168 | 1040 ft | 20 kts | 90° |
| 2026-05-05 15:16 | 33.63655 | -84.40999 | 1040 ft | 20 kts | 90° |
| 2026-05-05 15:16 | 33.63655 | -84.40837 | 1040 ft | 15 kts | 90° |
| 2026-05-05 15:17 | 33.63633 | -84.40756 | 1040 ft | 10 kts | 145° |
| 2026-05-05 15:17 | 33.63561 | -84.40748 | 1041 ft | 10 kts | 179° |
| 2026-05-05 15:17 | 33.63490 | -84.40751 | 1040 ft | 10 kts | 200° |
| 2026-05-05 15:17 | 33.63474 | -84.40801 | 1041 ft | 8 kts | 272° |
| 2026-05-05 15:18 | 33.63471 | -84.41152 | 1039 ft | 85 kts | 270° |
| 2026-05-05 15:18 | 33.63471 | -84.42208 | 1040 ft | 166 kts | 270° |
| 2026-05-05 15:18 | 33.63471 | -84.43784 | 1465 ft | 192 kts | 269° |
| 2026-05-05 15:18 | 33.63479 | -84.45421 | 2273 ft | 204 kts | 268° |
| 2026-05-05 15:19 | 33.63422 | -84.47115 | 3045 ft | 203 kts | 257° |
| 2026-05-05 15:19 | 33.62850 | -84.48729 | 3310 ft | 217 kts | 238° |
| 2026-05-05 15:19 | 33.62318 | -84.49828 | 3482 ft | 235 kts | 238° |
| 2026-05-05 15:19 | 33.61518 | -84.51614 | 3976 ft | 247 kts | 240° |
| 2026-05-05 15:20 | 33.60762 | -84.53472 | 4806 ft | 250 kts | 242° |
| 2026-05-05 15:20 | 33.60026 | -84.55345 | 5586 ft | 253 kts | 242° |
| 2026-05-05 15:20 | 33.59016 | -84.57100 | 6187 ft | 257 kts | 217° |
| 2026-05-05 15:20 | 33.57449 | -84.58072 | 6917 ft | 259 kts | 197° |
| 2026-05-05 15:21 | 33.55648 | -84.58345 | 7631 ft | 267 kts | 176° |
| 2026-05-05 15:21 | 33.53821 | -84.57702 | 8307 ft | 278 kts | 151° |
| 2026-05-05 15:21 | 33.52413 | -84.56131 | 8983 ft | 289 kts | 124° |
| 2026-05-05 15:21 | 33.51739 | -84.53845 | 9665 ft | 299 kts | 95° |
| 2026-05-05 15:22 | 33.52083 | -84.51386 | 10291 ft | 307 kts | 65° |
| 2026-05-05 15:22 | 33.53192 | -84.49132 | 10556 ft | 325 kts | 57° |
| 2026-05-05 15:22 | 33.54492 | -84.46795 | 10748 ft | 349 kts | 56° |
| 2026-05-05 15:22 | 33.55909 | -84.44304 | 10932 ft | 374 kts | 55° |
| 2026-05-05 15:23 | 33.57406 | -84.41673 | 11385 ft | 388 kts | 55° |
| 2026-05-05 15:23 | 33.58935 | -84.38968 | 12049 ft | 396 kts | 55° |
| 2026-05-05 15:23 | 33.60479 | -84.36216 | 12832 ft | 400 kts | 55° |
| 2026-05-05 15:23 | 33.62032 | -84.33428 | 13647 ft | 404 kts | 55° |
| 2026-05-05 15:24 | 33.63595 | -84.30607 | 14369 ft | 408 kts | 55° |
| 2026-05-05 15:24 | 33.65172 | -84.27753 | 15058 ft | 413 kts | 55° |
| 2026-05-05 15:24 | 33.66770 | -84.24854 | 15748 ft | 418 kts | 55° |
| 2026-05-05 15:24 | 33.68385 | -84.21922 | 16472 ft | 423 kts | 54° |
| 2026-05-05 15:25 | 33.70011 | -84.18965 | 17161 ft | 427 kts | 54° |
| 2026-05-05 15:25 | 33.71659 | -84.15966 | 17842 ft | 432 kts | 54° |
| 2026-05-05 15:25 | 33.73323 | -84.12936 | 18503 ft | 437 kts | 54° |
| 2026-05-05 15:25 | 33.75005 | -84.09870 | 19105 ft | 442 kts | 54° |
| 2026-05-05 15:26 | 33.76701 | -84.06777 | 19692 ft | 446 kts | 54° |
| 2026-05-05 15:26 | 33.78416 | -84.03647 | 20257 ft | 451 kts | 54° |
| 2026-05-05 15:26 | 33.80148 | -84.00483 | 20829 ft | 455 kts | 53° |
| 2026-05-05 15:26 | 33.81836 | -83.97230 | 21408 ft | 461 kts | 56° |
| 2026-05-05 15:27 | 33.83478 | -83.93903 | 21944 ft | 465 kts | 56° |
| 2026-05-05 15:27 | 33.85186 | -83.90578 | 22490 ft | 469 kts | 54° |
| 2026-05-05 15:27 | 33.86977 | -83.87277 | 23028 ft | 473 kts | 52° |
| 2026-05-05 15:27 | 33.88827 | -83.83995 | 23560 ft | 476 kts | 51° |
| 2026-05-05 15:28 | 33.90719 | -83.80698 | 24012 ft | 480 kts | 51° |
| 2026-05-05 15:28 | 33.92621 | -83.77383 | 24485 ft | 484 kts | 51° |
| 2026-05-05 15:28 | 33.94533 | -83.74031 | 24950 ft | 486 kts | 51° |
| 2026-05-05 15:28 | 33.96463 | -83.70666 | 25400 ft | 489 kts | 49° |
| 2026-05-05 15:29 | 33.98465 | -83.67349 | 25825 ft | 491 kts | 48° |
| 2026-05-05 15:29 | 34.00521 | -83.64041 | 26263 ft | 494 kts | 47° |
| 2026-05-05 15:29 | 34.02593 | -83.60731 | 26691 ft | 497 kts | 47° |
| 2026-05-05 15:29 | 34.04649 | -83.57433 | 27101 ft | 500 kts | 47° |
| 2026-05-05 15:30 | 34.06761 | -83.54021 | 27478 ft | 503 kts | 47° |
| 2026-05-05 15:30 | 34.08857 | -83.50613 | 27881 ft | 506 kts | 47° |
| 2026-05-05 15:30 | 34.10951 | -83.47191 | 28271 ft | 509 kts | 47° |
| 2026-05-05 15:30 | 34.13059 | -83.43739 | 28654 ft | 511 kts | 46° |
| 2026-05-05 15:31 | 34.15170 | -83.40276 | 29016 ft | 514 kts | 46° |
| 2026-05-05 15:31 | 34.17268 | -83.36833 | 29333 ft | 517 kts | 46° |
| 2026-05-05 15:31 | 34.19399 | -83.33332 | 29677 ft | 519 kts | 46° |
| 2026-05-05 15:31 | 34.21543 | -83.29808 | 29992 ft | 521 kts | 46° |
| 2026-05-05 15:32 | 34.23690 | -83.26277 | 30272 ft | 523 kts | 46° |
| 2026-05-05 15:32 | 34.25847 | -83.22725 | 30518 ft | 525 kts | 46° |
| 2026-05-05 15:32 | 34.28003 | -83.19170 | 30781 ft | 525 kts | 46° |
| 2026-05-05 15:32 | 34.30167 | -83.15602 | 31051 ft | 526 kts | 45° |
| 2026-05-05 15:33 | 34.32327 | -83.12043 | 31360 ft | 524 kts | 45° |
| 2026-05-05 15:33 | 34.34489 | -83.08503 | 31718 ft | 522 kts | 44° |
| 2026-05-05 15:33 | 34.36646 | -83.04981 | 32108 ft | 519 kts | 44° |
| 2026-05-05 15:33 | 34.38787 | -83.01484 | 32474 ft | 517 kts | 44° |
| 2026-05-05 15:34 | 34.40921 | -82.97996 | 32822 ft | 515 kts | 43° |
| 2026-05-05 15:34 | 34.43055 | -82.94506 | 33046 ft | 516 kts | 43° |
| 2026-05-05 15:34 | 34.45193 | -82.91007 | 33086 ft | 517 kts | 43° |
| 2026-05-05 15:35 | 34.49452 | -82.84007 | 33101 ft | 513 kts | 43° |
| 2026-05-05 15:35 | 34.53659 | -82.77071 | 33115 ft | 510 kts | 43° |
| 2026-05-05 15:36 | 34.57859 | -82.70147 | 33118 ft | 509 kts | 43° |
| 2026-05-05 15:36 | 34.62058 | -82.63207 | 33112 ft | 510 kts | 43° |
| 2026-05-05 15:37 | 34.66254 | -82.56259 | 33116 ft | 510 kts | 44° |
| 2026-05-05 15:37 | 34.70413 | -82.49249 | 33123 ft | 512 kts | 44° |
| 2026-05-05 15:38 | 34.74537 | -82.42183 | 33125 ft | 513 kts | 45° |
| 2026-05-05 15:38 | 34.78639 | -82.35149 | 33128 ft | 513 kts | 45° |
| 2026-05-05 15:39 | 34.82770 | -82.28070 | 33124 ft | 513 kts | 45° |
| 2026-05-05 15:39 | 34.86899 | -82.20988 | 33124 ft | 512 kts | 45° |
| 2026-05-05 15:40 | 34.91016 | -82.13909 | 33124 ft | 512 kts | 45° |
| 2026-05-05 15:40 | 34.95129 | -82.06825 | 33122 ft | 511 kts | 45° |
| 2026-05-05 15:41 | 34.99227 | -81.99748 | 33127 ft | 511 kts | 45° |
| 2026-05-05 15:41 | 35.03318 | -81.92675 | 33108 ft | 510 kts | 45° |
| 2026-05-05 15:42 | 35.07513 | -81.85745 | 33097 ft | 506 kts | 42° |
| 2026-05-05 15:42 | 35.11771 | -81.78986 | 33093 ft | 505 kts | 42° |
| 2026-05-05 15:43 | 35.16051 | -81.72153 | 33122 ft | 510 kts | 43° |
| 2026-05-05 15:43 | 35.20371 | -81.65186 | 33116 ft | 516 kts | 43° |
| 2026-05-05 15:44 | 35.24696 | -81.58165 | 33117 ft | 520 kts | 43° |
| 2026-05-05 15:44 | 35.29063 | -81.51057 | 33115 ft | 523 kts | 44° |
| 2026-05-05 15:45 | 35.33419 | -81.43957 | 33104 ft | 524 kts | 44° |
| 2026-05-05 15:45 | 35.37806 | -81.36794 | 33090 ft | 525 kts | 44° |
| 2026-05-05 15:46 | 35.42184 | -81.29635 | 33105 ft | 524 kts | 44° |
| 2026-05-05 15:46 | 35.46531 | -81.22511 | 33120 ft | 523 kts | 44° |
| 2026-05-05 15:47 | 35.50895 | -81.15343 | 33107 ft | 522 kts | 44° |
| 2026-05-05 15:47 | 35.55223 | -81.08220 | 33099 ft | 521 kts | 44° |
| 2026-05-05 15:48 | 35.59547 | -81.01096 | 33091 ft | 520 kts | 44° |
| 2026-05-05 15:48 | 35.63888 | -80.93938 | 33106 ft | 520 kts | 45° |
| 2026-05-05 15:49 | 35.68188 | -80.86836 | 33111 ft | 519 kts | 45° |
| 2026-05-05 15:49 | 35.72494 | -80.79708 | 33108 ft | 519 kts | 45° |
| 2026-05-05 15:50 | 35.76788 | -80.72583 | 33092 ft | 519 kts | 45° |
| 2026-05-05 15:50 | 35.81092 | -80.65425 | 33083 ft | 518 kts | 45° |
| 2026-05-05 15:51 | 35.85377 | -80.58284 | 33079 ft | 517 kts | 45° |
| 2026-05-05 15:51 | 35.89635 | -80.51173 | 33080 ft | 517 kts | 45° |
| 2026-05-05 15:52 | 35.93910 | -80.44020 | 33085 ft | 517 kts | 45° |
| 2026-05-05 15:52 | 35.98154 | -80.36904 | 33083 ft | 516 kts | 46° |
| 2026-05-05 15:53 | 36.02414 | -80.29729 | 33062 ft | 516 kts | 46° |
| 2026-05-05 15:53 | 36.06643 | -80.22581 | 33065 ft | 516 kts | 46° |
| 2026-05-05 15:54 | 36.10878 | -80.15413 | 33082 ft | 516 kts | 46° |
| 2026-05-05 15:54 | 36.15084 | -80.08279 | 33087 ft | 516 kts | 46° |
| 2026-05-05 15:55 | 36.19296 | -80.01127 | 33091 ft | 515 kts | 46° |
| 2026-05-05 15:55 | 36.23533 | -79.93956 | 33087 ft | 515 kts | 46° |
| 2026-05-05 15:56 | 36.27765 | -79.86784 | 33087 ft | 514 kts | 47° |
| 2026-05-05 15:56 | 36.31972 | -79.79636 | 33087 ft | 514 kts | 47° |
| 2026-05-05 15:57 | 36.36195 | -79.72437 | 33089 ft | 514 kts | 47° |
| 2026-05-05 15:57 | 36.40387 | -79.65279 | 33081 ft | 514 kts | 47° |
| 2026-05-05 15:58 | 36.44577 | -79.58106 | 33070 ft | 514 kts | 47° |
| 2026-05-05 15:58 | 36.48791 | -79.50879 | 33074 ft | 514 kts | 47° |
| 2026-05-05 15:59 | 36.52974 | -79.43690 | 33082 ft | 514 kts | 47° |
| 2026-05-05 15:59 | 36.57172 | -79.36461 | 33085 ft | 514 kts | 48° |
| 2026-05-05 16:00 | 36.61349 | -79.29250 | 33082 ft | 515 kts | 48° |
| 2026-05-05 16:00 | 36.65515 | -79.22044 | 33088 ft | 514 kts | 48° |
| 2026-05-05 16:01 | 36.69704 | -79.14784 | 33074 ft | 514 kts | 48° |
| 2026-05-05 16:01 | 36.73859 | -79.07566 | 33043 ft | 514 kts | 49° |
| 2026-05-05 16:02 | 36.78034 | -79.00296 | 33032 ft | 514 kts | 49° |
| 2026-05-05 16:02 | 36.82179 | -78.93065 | 33035 ft | 514 kts | 49° |
| 2026-05-05 16:03 | 36.86330 | -78.85780 | 33042 ft | 514 kts | 49° |
| 2026-05-05 16:03 | 36.90458 | -78.78489 | 33052 ft | 513 kts | 49° |
| 2026-05-05 16:04 | 36.94564 | -78.71220 | 33049 ft | 513 kts | 49° |
| 2026-05-05 16:04 | 36.98685 | -78.63914 | 33051 ft | 512 kts | 49° |
| 2026-05-05 16:05 | 37.02767 | -78.56666 | 33056 ft | 512 kts | 49° |
| 2026-05-05 16:05 | 37.06872 | -78.49359 | 33048 ft | 511 kts | 50° |
| 2026-05-05 16:06 | 37.10965 | -78.42058 | 33036 ft | 511 kts | 50° |
| 2026-05-05 16:06 | 37.15031 | -78.34787 | 33035 ft | 510 kts | 50° |
| 2026-05-05 16:07 | 37.19082 | -78.27533 | 33034 ft | 510 kts | 50° |
| 2026-05-05 16:07 | 37.22744 | -78.21776 | 33034 ft | 504 kts | 43° |
| 2026-05-05 16:08 | 37.27443 | -78.15200 | 33034 ft | 504 kts | 43° |
| 2026-05-05 16:08 | 37.32121 | -78.08675 | 33027 ft | 504 kts | 43° |
| 2026-05-05 16:09 | 37.36777 | -78.02102 | 33029 ft | 504 kts | 43° |
| 2026-05-05 16:09 | 37.41428 | -77.95485 | 33033 ft | 504 kts | 43° |
| 2026-05-05 16:10 | 37.46046 | -77.88895 | 33028 ft | 504 kts | 44° |
| 2026-05-05 16:10 | 37.50698 | -77.82245 | 33041 ft | 504 kts | 44° |
| 2026-05-05 16:11 | 37.55314 | -77.75639 | 33048 ft | 504 kts | 44° |
| 2026-05-05 16:12 | 37.64583 | -77.62332 | 33059 ft | 506 kts | 44° |
| 2026-05-05 16:13 | 37.76193 | -77.45585 | 33050 ft | 507 kts | 44° |
| 2026-05-05 16:13 | 37.80814 | -77.38895 | 33059 ft | 507 kts | 44° |
| 2026-05-05 16:14 | 37.90094 | -77.25419 | 33039 ft | 508 kts | 44° |
| 2026-05-05 16:15 | 37.99381 | -77.11875 | 33035 ft | 509 kts | 44° |
| 2026-05-05 16:16 | 38.08669 | -76.98272 | 33031 ft | 511 kts | 44° |
| 2026-05-05 16:17 | 38.15648 | -76.88012 | 33008 ft | 512 kts | 44° |
| 2026-05-05 16:18 | 38.22622 | -76.77727 | 32999 ft | 513 kts | 44° |
| 2026-05-05 16:19 | 38.30326 | -76.68462 | 33012 ft | 507 kts | 34° |
| 2026-05-05 16:19 | 38.38455 | -76.59790 | 33016 ft | 509 kts | 36° |
| 2026-05-05 16:20 | 38.49255 | -76.48113 | 33002 ft | 510 kts | 35° |
| 2026-05-05 16:22 | 38.62857 | -76.33504 | 32998 ft | 511 kts | 36° |
| 2026-05-05 16:23 | 38.73734 | -76.21739 | 33329 ft | 513 kts | 36° |
| 2026-05-05 16:23 | 38.76457 | -76.18785 | 33556 ft | 513 kts | 36° |
| 2026-05-05 16:23 | 38.81920 | -76.12852 | 33850 ft | 513 kts | 36° |
| 2026-05-05 16:24 | 38.84614 | -76.09922 | 33999 ft | 514 kts | 36° |
| 2026-05-05 16:24 | 38.87346 | -76.06947 | 34142 ft | 514 kts | 36° |
| 2026-05-05 16:24 | 38.92803 | -76.00996 | 34380 ft | 515 kts | 36° |
| 2026-05-05 16:25 | 38.95536 | -75.98011 | 34491 ft | 515 kts | 36° |
| 2026-05-05 16:25 | 39.00869 | -75.91901 | 34714 ft | 517 kts | 39° |
| 2026-05-05 16:25 | 39.03496 | -75.88735 | 34820 ft | 518 kts | 39° |
| 2026-05-05 16:26 | 39.08743 | -75.82388 | 34933 ft | 518 kts | 39° |
| 2026-05-05 16:26 | 39.14020 | -75.76067 | 34963 ft | 519 kts | 39° |
| 2026-05-05 16:27 | 39.19318 | -75.69745 | 34967 ft | 519 kts | 39° |
| 2026-05-05 16:27 | 39.24624 | -75.63396 | 34972 ft | 520 kts | 39° |
| 2026-05-05 16:28 | 39.29891 | -75.57075 | 34965 ft | 520 kts | 39° |
| 2026-05-05 16:28 | 39.35181 | -75.50696 | 34970 ft | 521 kts | 39° |
| 2026-05-05 16:29 | 39.40472 | -75.44284 | 34960 ft | 521 kts | 39° |
| 2026-05-05 16:29 | 39.45750 | -75.37875 | 34974 ft | 521 kts | 39° |
| 2026-05-05 16:30 | 39.51032 | -75.31449 | 34972 ft | 521 kts | 39° |
| 2026-05-05 16:30 | 39.56307 | -75.25019 | 34974 ft | 521 kts | 39° |
| 2026-05-05 16:31 | 39.61586 | -75.18568 | 34957 ft | 521 kts | 40° |
| 2026-05-05 16:31 | 39.66865 | -75.12104 | 34959 ft | 521 kts | 40° |
| 2026-05-05 16:32 | 39.72271 | -75.05856 | 34940 ft | 518 kts | 36° |
| 2026-05-05 16:32 | 39.77766 | -74.99874 | 34957 ft | 518 kts | 37° |
| 2026-05-05 16:33 | 39.83219 | -74.93715 | 34947 ft | 517 kts | 38° |
| 2026-05-05 16:33 | 39.88608 | -74.87570 | 34940 ft | 517 kts | 38° |
| 2026-05-05 16:34 | 39.94299 | -74.81955 | 34932 ft | 513 kts | 31° |
| 2026-05-05 16:34 | 40.00181 | -74.76672 | 34959 ft | 513 kts | 32° |
| 2026-05-05 16:35 | 40.05681 | -74.70672 | 34938 ft | 518 kts | 43° |
| 2026-05-05 16:35 | 40.10495 | -74.63641 | 34954 ft | 520 kts | 46° |
| 2026-05-05 16:36 | 40.15305 | -74.56569 | 34950 ft | 520 kts | 45° |
| 2026-05-05 16:36 | 40.20213 | -74.49609 | 34946 ft | 519 kts | 41° |
| 2026-05-05 16:37 | 40.25639 | -74.43529 | 34949 ft | 516 kts | 35° |
| 2026-05-05 16:37 | 40.31262 | -74.37656 | 34949 ft | 517 kts | 35° |
| 2026-05-05 16:38 | 40.36868 | -74.31721 | 34941 ft | 518 kts | 36° |
| 2026-05-05 16:38 | 40.42449 | -74.25734 | 34930 ft | 518 kts | 36° |
| 2026-05-05 16:39 | 40.48029 | -74.19729 | 34916 ft | 519 kts | 36° |
| 2026-05-05 16:39 | 40.53616 | -74.13711 | 34930 ft | 519 kts | 36° |
| 2026-05-05 16:40 | 40.59164 | -74.07730 | 34923 ft | 519 kts | 36° |
| 2026-05-05 16:40 | 40.64754 | -74.01696 | 34953 ft | 519 kts | 36° |
| 2026-05-05 16:41 | 40.70338 | -73.95654 | 34947 ft | 520 kts | 36° |
| 2026-05-05 16:41 | 40.75921 | -73.89597 | 34938 ft | 520 kts | 36° |
| 2026-05-05 16:42 | 40.81512 | -73.83520 | 34919 ft | 520 kts | 36° |
| 2026-05-05 16:42 | 40.86778 | -73.77029 | 34926 ft | 524 kts | 45° |
| 2026-05-05 16:43 | 40.91201 | -73.69352 | 34932 ft | 526 kts | 53° |
| 2026-05-05 16:43 | 40.95339 | -73.61356 | 34935 ft | 527 kts | 53° |
| 2026-05-05 16:44 | 40.99511 | -73.53341 | 34931 ft | 527 kts | 53° |
| 2026-05-05 16:44 | 41.03688 | -73.45395 | 34933 ft | 527 kts | 52° |
| 2026-05-05 16:45 | 41.07870 | -73.37448 | 34932 ft | 527 kts | 53° |
| 2026-05-05 16:45 | 41.12060 | -73.29458 | 34946 ft | 528 kts | 53° |
| 2026-05-05 16:46 | 41.16245 | -73.21449 | 34938 ft | 528 kts | 53° |
| 2026-05-05 16:46 | 41.20428 | -73.13423 | 34950 ft | 529 kts | 53° |
| 2026-05-05 16:47 | 41.24607 | -73.05385 | 34945 ft | 529 kts | 53° |
| 2026-05-05 16:47 | 41.28783 | -72.97317 | 34939 ft | 530 kts | 54° |
| 2026-05-05 16:48 | 41.32637 | -72.89029 | 34936 ft | 531 kts | 57° |
| 2026-05-05 16:48 | 41.36388 | -72.80551 | 34949 ft | 532 kts | 57° |
| 2026-05-05 16:49 | 41.40153 | -72.72049 | 34919 ft | 532 kts | 57° |
| 2026-05-05 16:49 | 41.43939 | -72.63554 | 34947 ft | 533 kts | 57° |
| 2026-05-05 16:50 | 41.47730 | -72.55049 | 34938 ft | 534 kts | 57° |
| 2026-05-05 16:50 | 41.51524 | -72.46510 | 34943 ft | 534 kts | 57° |
| 2026-05-05 16:51 | 41.55289 | -72.38009 | 34933 ft | 535 kts | 57° |
| 2026-05-05 16:51 | 41.59069 | -72.29446 | 34933 ft | 536 kts | 57° |
| 2026-05-05 16:52 | 41.62849 | -72.20860 | 34934 ft | 536 kts | 57° |
| 2026-05-05 16:52 | 41.66635 | -72.12235 | 34941 ft | 537 kts | 57° |
| 2026-05-05 16:53 | 41.70414 | -72.03600 | 34930 ft | 538 kts | 57° |
| 2026-05-05 16:53 | 41.74193 | -71.94942 | 34933 ft | 538 kts | 57° |
| 2026-05-05 16:54 | 41.77331 | -71.87733 | 34927 ft | 539 kts | 58° |
| 2026-05-05 16:54 | 41.81894 | -71.77803 | 34933 ft | 537 kts | 51° |
| 2026-05-05 16:55 | 41.85744 | -71.71187 | 34933 ft | 536 kts | 49° |
| 2026-05-05 16:55 | 41.90418 | -71.63377 | 34948 ft | 537 kts | 49° |
| 2026-05-05 16:56 | 41.95073 | -71.55524 | 34929 ft | 538 kts | 49° |
| 2026-05-05 16:56 | 41.99701 | -71.47610 | 34948 ft | 538 kts | 49° |
| 2026-05-05 16:57 | 42.04281 | -71.39723 | 34931 ft | 539 kts | 49° |
| 2026-05-05 16:57 | 42.08930 | -71.31700 | 34899 ft | 539 kts | 49° |
| 2026-05-05 16:58 | 42.13510 | -71.23781 | 34885 ft | 540 kts | 49° |
| 2026-05-05 16:58 | 42.18130 | -71.15776 | 34892 ft | 540 kts | 49° |
| 2026-05-05 16:59 | 42.22744 | -71.07760 | 34886 ft | 541 kts | 49° |
| 2026-05-05 16:59 | 42.27356 | -70.99725 | 34912 ft | 541 kts | 50° |
| 2026-05-05 17:00 | 42.31969 | -70.91667 | 34908 ft | 542 kts | 50° |
| 2026-05-05 17:00 | 42.36550 | -70.83642 | 34913 ft | 542 kts | 50° |
| 2026-05-05 17:01 | 42.41154 | -70.75555 | 34894 ft | 542 kts | 50° |
| 2026-05-05 17:01 | 42.45755 | -70.67453 | 34886 ft | 543 kts | 50° |
| 2026-05-05 17:02 | 42.50362 | -70.59318 | 34889 ft | 543 kts | 50° |
| 2026-05-05 17:02 | 42.54964 | -70.51169 | 34900 ft | 544 kts | 50° |
| 2026-05-05 17:03 | 42.59537 | -70.43050 | 34893 ft | 545 kts | 50° |
| 2026-05-05 17:03 | 42.64140 | -70.34854 | 34904 ft | 546 kts | 50° |
| 2026-05-05 17:04 | 42.68749 | -70.26628 | 34899 ft | 547 kts | 50° |
| 2026-05-05 17:04 | 42.73364 | -70.18365 | 34892 ft | 549 kts | 50° |
| 2026-05-05 17:05 | 42.77982 | -70.10075 | 34891 ft | 549 kts | 50° |
| 2026-05-05 17:05 | 42.82590 | -70.01780 | 34884 ft | 550 kts | 50° |
| 2026-05-05 17:06 | 42.87174 | -69.93504 | 34900 ft | 550 kts | 50° |
| 2026-05-05 17:06 | 42.91778 | -69.85168 | 34886 ft | 550 kts | 50° |
| 2026-05-05 17:07 | 42.96375 | -69.76823 | 34896 ft | 550 kts | 51° |
| 2026-05-05 17:07 | 43.00963 | -69.68471 | 34890 ft | 550 kts | 51° |
| 2026-05-05 17:08 | 43.05547 | -69.60103 | 34902 ft | 549 kts | 51° |
| 2026-05-05 17:08 | 43.10118 | -69.51733 | 34889 ft | 549 kts | 51° |
| 2026-05-05 17:09 | 43.14687 | -69.43345 | 34907 ft | 549 kts | 51° |
| 2026-05-05 17:09 | 43.19249 | -69.34945 | 34897 ft | 549 kts | 51° |
| 2026-05-05 17:10 | 43.23804 | -69.26534 | 34914 ft | 549 kts | 51° |
| 2026-05-05 17:10 | 43.28319 | -69.18174 | 34895 ft | 549 kts | 51° |
| 2026-05-05 17:11 | 43.32890 | -69.09687 | 34912 ft | 549 kts | 51° |
| 2026-05-05 17:11 | 43.37403 | -69.01282 | 34902 ft | 550 kts | 51° |
| 2026-05-05 17:12 | 43.41941 | -68.92806 | 34909 ft | 550 kts | 51° |
| 2026-05-05 17:12 | 43.46471 | -68.84321 | 34893 ft | 550 kts | 51° |
| 2026-05-05 17:13 | 43.51001 | -68.75811 | 34911 ft | 550 kts | 51° |
| 2026-05-05 17:13 | 43.55525 | -68.67288 | 34899 ft | 551 kts | 52° |
| 2026-05-05 17:14 | 43.60040 | -68.58757 | 34911 ft | 551 kts | 52° |
| 2026-05-05 17:14 | 43.64558 | -68.50196 | 34901 ft | 551 kts | 52° |
| 2026-05-05 17:15 | 43.69032 | -68.41694 | 34915 ft | 551 kts | 52° |
| 2026-05-05 17:15 | 43.73544 | -68.33093 | 34904 ft | 551 kts | 52° |
| 2026-05-05 17:16 | 43.78021 | -68.24536 | 34913 ft | 551 kts | 52° |
| 2026-05-05 17:16 | 43.82528 | -68.15896 | 34905 ft | 550 kts | 52° |
| 2026-05-05 17:17 | 43.86976 | -68.07343 | 34920 ft | 550 kts | 52° |
| 2026-05-05 17:17 | 43.91450 | -67.98715 | 34910 ft | 550 kts | 52° |
| 2026-05-05 17:18 | 43.95896 | -67.90115 | 34922 ft | 550 kts | 52° |
| 2026-05-05 17:18 | 44.00359 | -67.81457 | 34913 ft | 549 kts | 52° |
| 2026-05-05 17:19 | 44.04789 | -67.72838 | 34917 ft | 549 kts | 52° |
| 2026-05-05 17:19 | 44.09235 | -67.64160 | 34930 ft | 549 kts | 52° |
| 2026-05-05 17:20 | 44.13634 | -67.55549 | 34933 ft | 549 kts | 52° |
| 2026-05-05 17:20 | 44.18061 | -67.46859 | 34927 ft | 549 kts | 52° |
| 2026-05-05 17:21 | 44.22438 | -67.38242 | 34934 ft | 549 kts | 52° |
| 2026-05-05 17:22 | 44.29044 | -67.25184 | 34937 ft | 549 kts | 53° |
| 2026-05-05 17:22 | 44.33416 | -67.16510 | 34933 ft | 549 kts | 53° |
| 2026-05-05 17:23 | 44.37805 | -67.07777 | 34930 ft | 549 kts | 53° |
| 2026-05-05 17:23 | 44.42245 | -66.99060 | 34939 ft | 548 kts | 49° |
| 2026-05-05 17:24 | 44.47177 | -66.90952 | 34937 ft | 547 kts | 46° |
| 2026-05-05 17:24 | 44.52223 | -66.82963 | 34363 ft | 546 kts | 46° |
| 2026-05-05 17:24 | 44.54701 | -66.79017 | 34616 ft | 531 kts | 46° |
| 2026-05-05 17:25 | 44.57113 | -66.75146 | 34742 ft | 526 kts | 46° |
| 2026-05-05 17:25 | 44.61887 | -66.67426 | 34887 ft | 526 kts | 46° |
| 2026-05-05 17:26 | 44.66689 | -66.59617 | 34931 ft | 529 kts | 46° |
| 2026-05-05 17:26 | 44.71513 | -66.51747 | 34942 ft | 532 kts | 46° |
| 2026-05-05 17:27 | 44.76324 | -66.43877 | 34945 ft | 534 kts | 46° |
| 2026-05-05 17:27 | 44.81183 | -66.35908 | 34944 ft | 535 kts | 46° |
| 2026-05-05 17:28 | 44.86036 | -66.27928 | 34940 ft | 535 kts | 46° |
| 2026-05-05 17:28 | 44.90848 | -66.19990 | 34938 ft | 534 kts | 46° |
| 2026-05-05 17:29 | 44.95655 | -66.12041 | 34941 ft | 532 kts | 46° |
| 2026-05-05 17:29 | 45.00442 | -66.04102 | 34944 ft | 531 kts | 46° |
| 2026-05-05 17:30 | 45.05224 | -65.96150 | 34939 ft | 531 kts | 46° |
| 2026-05-05 17:30 | 45.10012 | -65.88165 | 34932 ft | 530 kts | 46° |
| 2026-05-05 17:31 | 45.14781 | -65.80189 | 34931 ft | 530 kts | 46° |
| 2026-05-05 17:31 | 45.19540 | -65.72207 | 34931 ft | 530 kts | 46° |
| 2026-05-05 17:32 | 45.24295 | -65.64209 | 34930 ft | 530 kts | 46° |
| 2026-05-05 17:32 | 45.29035 | -65.56214 | 34928 ft | 531 kts | 46° |
| 2026-05-05 17:33 | 45.33785 | -65.48179 | 34929 ft | 531 kts | 46° |
| 2026-05-05 17:33 | 45.38534 | -65.40121 | 34929 ft | 531 kts | 46° |
| 2026-05-05 17:34 | 45.43276 | -65.32053 | 34927 ft | 531 kts | 46° |
| 2026-05-05 17:34 | 45.47992 | -65.24006 | 34919 ft | 531 kts | 46° |
| 2026-05-05 17:35 | 45.52737 | -65.15886 | 34918 ft | 532 kts | 47° |
| 2026-05-05 17:35 | 45.57470 | -65.07763 | 34912 ft | 532 kts | 47° |
| 2026-05-05 17:36 | 45.62184 | -64.99650 | 34907 ft | 532 kts | 47° |
| 2026-05-05 17:36 | 45.66895 | -64.91519 | 34905 ft | 533 kts | 47° |
| 2026-05-05 17:37 | 45.71625 | -64.83329 | 34895 ft | 533 kts | 47° |
| 2026-05-05 17:37 | 45.76353 | -64.75121 | 34889 ft | 534 kts | 47° |
| 2026-05-05 17:38 | 45.81051 | -64.66939 | 34881 ft | 534 kts | 47° |
| 2026-05-05 17:38 | 45.85771 | -64.58694 | 34868 ft | 535 kts | 47° |
| 2026-05-05 17:39 | 45.90489 | -64.50430 | 34862 ft | 535 kts | 47° |
| 2026-05-05 17:39 | 45.95186 | -64.42178 | 34841 ft | 535 kts | 47° |
| 2026-05-05 17:40 | 45.99902 | -64.33868 | 34852 ft | 535 kts | 47° |
| 2026-05-05 17:40 | 46.04574 | -64.25610 | 34874 ft | 534 kts | 47° |
| 2026-05-05 17:41 | 46.08511 | -64.18633 | 34858 ft | 534 kts | 47° |
| 2026-05-05 17:41 | 46.13170 | -64.10354 | 34870 ft | 534 kts | 47° |
| 2026-05-05 17:42 | 46.17845 | -64.02021 | 34868 ft | 534 kts | 47° |
| 2026-05-05 17:42 | 46.22509 | -63.93683 | 34866 ft | 534 kts | 47° |
| 2026-05-05 17:43 | 46.27170 | -63.85325 | 34865 ft | 534 kts | 47° |
| 2026-05-05 17:43 | 46.31822 | -63.76957 | 34870 ft | 534 kts | 47° |
| 2026-05-05 17:44 | 46.36452 | -63.68605 | 34868 ft | 533 kts | 47° |
| 2026-05-05 17:44 | 46.41096 | -63.60203 | 34869 ft | 533 kts | 47° |
| 2026-05-05 17:45 | 46.45724 | -63.51803 | 34870 ft | 533 kts | 47° |
| 2026-05-05 17:45 | 46.50353 | -63.43378 | 34870 ft | 533 kts | 47° |
| 2026-05-05 17:46 | 46.54947 | -63.34989 | 34869 ft | 533 kts | 47° |
| 2026-05-05 17:46 | 46.59558 | -63.26543 | 34863 ft | 532 kts | 47° |
| 2026-05-05 17:47 | 46.64142 | -63.18121 | 34859 ft | 532 kts | 47° |
| 2026-05-05 17:47 | 46.68731 | -63.09666 | 34858 ft | 532 kts | 47° |
| 2026-05-05 17:48 | 46.73319 | -63.01187 | 34851 ft | 531 kts | 47° |
| 2026-05-05 17:48 | 46.77873 | -62.92743 | 34854 ft | 531 kts | 47° |
| 2026-05-05 17:49 | 46.82441 | -62.84249 | 34850 ft | 531 kts | 47° |
| 2026-05-05 17:49 | 46.86989 | -62.75765 | 34847 ft | 531 kts | 47° |
| 2026-05-05 17:50 | 46.91542 | -62.67247 | 34856 ft | 531 kts | 47° |
| 2026-05-05 17:50 | 46.96075 | -62.58738 | 34851 ft | 531 kts | 47° |
| 2026-05-05 17:51 | 47.00610 | -62.50201 | 34851 ft | 531 kts | 47° |
| 2026-05-05 17:51 | 47.05156 | -62.41614 | 34853 ft | 531 kts | 47° |
| 2026-05-05 17:52 | 47.09653 | -62.33095 | 34855 ft | 531 kts | 47° |
| 2026-05-05 17:52 | 47.14195 | -62.24463 | 34861 ft | 531 kts | 47° |
| 2026-05-05 17:53 | 47.18701 | -62.15873 | 34860 ft | 531 kts | 47° |
| 2026-05-05 17:53 | 47.23172 | -62.07323 | 34855 ft | 531 kts | 47° |
| 2026-05-05 17:54 | 47.27670 | -61.98695 | 34851 ft | 530 kts | 47° |
| 2026-05-05 17:54 | 47.32161 | -61.90054 | 34852 ft | 530 kts | 47° |
| 2026-05-05 17:55 | 47.36633 | -61.81421 | 34841 ft | 529 kts | 47° |
| 2026-05-05 17:55 | 47.41100 | -61.72771 | 34839 ft | 529 kts | 47° |
| 2026-05-05 17:56 | 47.45553 | -61.64121 | 34849 ft | 529 kts | 47° |
| 2026-05-05 17:56 | 47.49999 | -61.55458 | 34851 ft | 529 kts | 47° |
| 2026-05-05 17:57 | 47.54429 | -61.46798 | 34853 ft | 529 kts | 47° |
| 2026-05-05 17:57 | 47.58853 | -61.38123 | 34860 ft | 529 kts | 47° |
| 2026-05-05 17:58 | 47.63294 | -61.29387 | 34869 ft | 529 kts | 47° |
| 2026-05-05 17:58 | 47.67708 | -61.20676 | 34872 ft | 530 kts | 47° |
| 2026-05-05 17:59 | 47.72125 | -61.11930 | 34878 ft | 530 kts | 47° |
| 2026-05-05 17:59 | 47.76552 | -61.03137 | 34874 ft | 531 kts | 47° |
| 2026-05-05 18:00 | 47.80981 | -60.94312 | 34880 ft | 532 kts | 47° |
| 2026-05-05 18:00 | 47.85374 | -60.85530 | 34885 ft | 532 kts | 47° |
| 2026-05-05 18:01 | 47.89799 | -60.76655 | 34884 ft | 533 kts | 47° |
| 2026-05-05 18:01 | 47.94211 | -60.67777 | 34885 ft | 533 kts | 47° |
| 2026-05-05 18:02 | 47.98624 | -60.58869 | 34887 ft | 533 kts | 47° |
| 2026-05-05 18:02 | 48.03027 | -60.49954 | 34883 ft | 533 kts | 47° |
| 2026-05-05 18:03 | 48.07430 | -60.41007 | 34886 ft | 533 kts | 47° |
| 2026-05-05 18:03 | 48.11787 | -60.32118 | 34890 ft | 533 kts | 47° |
| 2026-05-05 18:04 | 48.16159 | -60.23177 | 34892 ft | 532 kts | 47° |
| 2026-05-05 18:04 | 48.20513 | -60.14242 | 34891 ft | 531 kts | 47° |
| 2026-05-05 18:05 | 48.24869 | -60.05276 | 34894 ft | 530 kts | 47° |
| 2026-05-05 18:05 | 48.29193 | -59.96346 | 34896 ft | 530 kts | 47° |
| 2026-05-05 18:06 | 48.33511 | -59.87398 | 34894 ft | 529 kts | 47° |
| 2026-05-05 18:06 | 48.37828 | -59.78422 | 34897 ft | 528 kts | 47° |
| 2026-05-05 18:07 | 48.42134 | -59.69437 | 34892 ft | 528 kts | 47° |
| 2026-05-05 18:07 | 48.46411 | -59.60483 | 34896 ft | 528 kts | 47° |
| 2026-05-05 18:08 | 48.50695 | -59.51487 | 34899 ft | 528 kts | 47° |
| 2026-05-05 18:08 | 48.54949 | -59.42523 | 34897 ft | 528 kts | 48° |
| 2026-05-05 18:09 | 48.59226 | -59.33481 | 34898 ft | 528 kts | 48° |
| 2026-05-05 18:09 | 48.63489 | -59.24439 | 34901 ft | 528 kts | 48° |
| 2026-05-05 18:10 | 48.67714 | -59.15446 | 34901 ft | 528 kts | 48° |
| 2026-05-05 18:10 | 48.71965 | -59.06369 | 34899 ft | 528 kts | 48° |
| 2026-05-05 18:11 | 48.76207 | -58.97281 | 34903 ft | 528 kts | 48° |
| 2026-05-05 18:11 | 48.80448 | -58.88164 | 34902 ft | 529 kts | 49° |
| 2026-05-05 18:12 | 48.84677 | -58.79040 | 34896 ft | 529 kts | 49° |
| 2026-05-05 18:12 | 48.88918 | -58.69860 | 34893 ft | 529 kts | 49° |
| 2026-05-05 18:13 | 48.93119 | -58.60737 | 34889 ft | 530 kts | 49° |
| 2026-05-05 18:13 | 48.97342 | -58.51533 | 34885 ft | 531 kts | 49° |
| 2026-05-05 18:14 | 49.01561 | -58.42306 | 34881 ft | 531 kts | 49° |
| 2026-05-05 18:14 | 49.05785 | -58.33039 | 34877 ft | 532 kts | 49° |
| 2026-05-05 18:15 | 49.10010 | -58.23736 | 34865 ft | 533 kts | 49° |
| 2026-05-05 18:15 | 49.14230 | -58.14410 | 34862 ft | 534 kts | 49° |
| 2026-05-05 18:16 | 49.18426 | -58.05106 | 34858 ft | 535 kts | 49° |
| 2026-05-05 18:16 | 49.22653 | -57.95702 | 34854 ft | 536 kts | 49° |
| 2026-05-05 18:17 | 49.26875 | -57.86272 | 34822 ft | 538 kts | 49° |
| 2026-05-05 18:17 | 49.31099 | -57.76807 | 34817 ft | 538 kts | 50° |
| 2026-05-05 18:18 | 49.35324 | -57.67307 | 34810 ft | 539 kts | 50° |
| 2026-05-05 18:18 | 49.39535 | -57.57802 | 34819 ft | 539 kts | 50° |
| 2026-05-05 18:19 | 49.43739 | -57.48280 | 34809 ft | 539 kts | 50° |
| 2026-05-05 18:19 | 49.47932 | -57.38748 | 34801 ft | 538 kts | 50° |
| 2026-05-05 18:20 | 49.52115 | -57.29205 | 34791 ft | 537 kts | 50° |
| 2026-05-05 18:20 | 49.56261 | -57.19713 | 34778 ft | 536 kts | 50° |
| 2026-05-05 18:21 | 49.60405 | -57.10191 | 34777 ft | 535 kts | 50° |
| 2026-05-05 18:21 | 49.64543 | -57.00649 | 34770 ft | 535 kts | 50° |
| 2026-05-05 18:22 | 49.68688 | -56.91058 | 34771 ft | 535 kts | 50° |
| 2026-05-05 18:22 | 49.72802 | -56.81504 | 34769 ft | 535 kts | 51° |
| 2026-05-05 18:23 | 49.76919 | -56.71911 | 34748 ft | 536 kts | 51° |
| 2026-05-05 18:23 | 49.81039 | -56.62270 | 34760 ft | 536 kts | 51° |
| 2026-05-05 18:24 | 49.85158 | -56.52600 | 34761 ft | 537 kts | 51° |
| 2026-05-05 18:24 | 49.89240 | -56.42979 | 34759 ft | 538 kts | 51° |
| 2026-05-05 18:25 | 49.93353 | -56.33251 | 34760 ft | 539 kts | 51° |
| 2026-05-05 18:25 | 49.97466 | -56.23489 | 34763 ft | 540 kts | 52° |
| 2026-05-05 18:26 | 50.01571 | -56.13706 | 34754 ft | 541 kts | 52° |
| 2026-05-05 18:26 | 50.05681 | -56.03875 | 34760 ft | 541 kts | 52° |
| 2026-05-05 18:27 | 50.09753 | -55.94100 | 34757 ft | 541 kts | 52° |
| 2026-05-05 18:27 | 50.13847 | -55.84236 | 34750 ft | 542 kts | 52° |
| 2026-05-05 18:28 | 50.19974 | -55.69404 | 34752 ft | 542 kts | 53° |
| 2026-05-05 18:28 | 50.24051 | -55.59487 | 34745 ft | 543 kts | 53° |
| 2026-05-05 18:29 | 50.28122 | -55.49546 | 34751 ft | 543 kts | 53° |
| 2026-05-05 18:29 | 50.31515 | -55.41233 | 34751 ft | 543 kts | 53° |
| 2026-05-05 18:30 | 50.36231 | -55.29633 | 34758 ft | 544 kts | 53° |
| 2026-05-05 18:30 | 50.39609 | -55.21295 | 34750 ft | 544 kts | 53° |
| 2026-05-05 18:31 | 50.43654 | -55.11273 | 34752 ft | 544 kts | 53° |
| 2026-05-05 18:31 | 50.47697 | -55.01219 | 34754 ft | 544 kts | 54° |
| 2026-05-05 18:32 | 50.51733 | -54.91144 | 34757 ft | 544 kts | 54° |
| 2026-05-05 18:32 | 50.55760 | -54.81048 | 34752 ft | 545 kts | 54° |
| 2026-05-05 18:33 | 50.59776 | -54.70944 | 34751 ft | 545 kts | 54° |
| 2026-05-05 18:33 | 50.63770 | -54.60854 | 34748 ft | 545 kts | 54° |
| 2026-05-05 18:34 | 50.67775 | -54.50699 | 34750 ft | 545 kts | 54° |
| 2026-05-05 18:34 | 50.71768 | -54.40534 | 34750 ft | 545 kts | 54° |
| 2026-05-05 18:35 | 50.75735 | -54.30394 | 34736 ft | 545 kts | 55° |
| 2026-05-05 18:35 | 50.79722 | -54.20166 | 34738 ft | 546 kts | 55° |
| 2026-05-05 18:36 | 50.83701 | -54.09915 | 34740 ft | 546 kts | 55° |
| 2026-05-05 18:36 | 50.87664 | -53.99667 | 34751 ft | 546 kts | 55° |
| 2026-05-05 18:37 | 50.91599 | -53.89451 | 34741 ft | 546 kts | 55° |
| 2026-05-05 18:37 | 50.95556 | -53.79135 | 34750 ft | 547 kts | 56° |
| 2026-05-05 18:38 | 50.99497 | -53.68821 | 34739 ft | 547 kts | 56° |
| 2026-05-05 18:38 | 51.03436 | -53.58470 | 34746 ft | 547 kts | 56° |
| 2026-05-05 18:39 | 51.07336 | -53.48180 | 34744 ft | 547 kts | 56° |
| 2026-05-05 18:39 | 51.11257 | -53.37791 | 34742 ft | 547 kts | 56° |
| 2026-05-05 18:40 | 51.15137 | -53.27477 | 34743 ft | 546 kts | 56° |
| 2026-05-05 18:40 | 51.18656 | -53.16715 | 34747 ft | 549 kts | 64° |
| 2026-05-05 18:41 | 51.21689 | -53.05524 | 34749 ft | 549 kts | 65° |
| 2026-05-05 18:41 | 51.24675 | -52.94326 | 34740 ft | 548 kts | 65° |
| 2026-05-05 18:42 | 51.27671 | -52.83216 | 34743 ft | 548 kts | 65° |
| 2026-05-05 18:42 | 51.30696 | -52.72060 | 34741 ft | 547 kts | 65° |
| 2026-05-05 18:43 | 51.33711 | -52.60904 | 34741 ft | 546 kts | 65° |
| 2026-05-05 18:43 | 51.36716 | -52.49719 | 34738 ft | 546 kts | 65° |
| 2026-05-05 18:44 | 51.39699 | -52.38548 | 34743 ft | 545 kts | 65° |
| 2026-05-05 18:44 | 51.42667 | -52.27379 | 34743 ft | 545 kts | 65° |
| 2026-05-05 18:45 | 51.45622 | -52.16203 | 34744 ft | 544 kts | 66° |
| 2026-05-05 18:45 | 51.48565 | -52.05020 | 34746 ft | 544 kts | 66° |
| 2026-05-05 18:46 | 51.51481 | -51.93886 | 34743 ft | 544 kts | 66° |
| 2026-05-05 18:46 | 51.54403 | -51.82673 | 34746 ft | 544 kts | 66° |
| 2026-05-05 18:47 | 51.57319 | -51.71428 | 34749 ft | 545 kts | 66° |
| 2026-05-05 18:47 | 51.60226 | -51.60164 | 34746 ft | 545 kts | 66° |
| 2026-05-05 18:48 | 51.63119 | -51.48894 | 34749 ft | 545 kts | 66° |
| 2026-05-05 18:48 | 51.66004 | -51.37603 | 34752 ft | 545 kts | 67° |
| 2026-05-05 18:49 | 51.68866 | -51.26343 | 34750 ft | 546 kts | 67° |
| 2026-05-05 18:49 | 51.71731 | -51.15014 | 34753 ft | 546 kts | 67° |
| 2026-05-05 18:50 | 51.74588 | -51.03656 | 34751 ft | 546 kts | 67° |
| 2026-05-05 18:50 | 51.77431 | -50.92298 | 34751 ft | 546 kts | 67° |
| 2026-05-05 18:51 | 51.80263 | -50.80930 | 34753 ft | 545 kts | 68° |
| 2026-05-05 18:51 | 51.83081 | -50.69557 | 34759 ft | 544 kts | 68° |
| 2026-05-05 18:52 | 51.85882 | -50.58192 | 34758 ft | 544 kts | 68° |
| 2026-05-05 18:52 | 51.88671 | -50.46818 | 34758 ft | 543 kts | 68° |
| 2026-05-05 18:53 | 51.91449 | -50.35433 | 34765 ft | 542 kts | 68° |
| 2026-05-05 18:53 | 51.94207 | -50.24068 | 34769 ft | 542 kts | 68° |
| 2026-05-05 18:54 | 51.96935 | -50.12771 | 34776 ft | 542 kts | 69° |
| 2026-05-05 18:54 | 51.99656 | -50.01341 | 34776 ft | 542 kts | 71° |
| 2026-05-05 18:55 | 52.01645 | -49.89565 | 34785 ft | 541 kts | 77° |
| 2026-05-05 18:55 | 52.03288 | -49.77661 | 34781 ft | 542 kts | 78° |
| 2026-05-05 18:56 | 52.04935 | -49.65672 | 34789 ft | 542 kts | 78° |
| 2026-05-05 18:56 | 52.06604 | -49.53758 | 34788 ft | 543 kts | 77° |
| 2026-05-05 18:57 | 52.08294 | -49.41740 | 34792 ft | 543 kts | 77° |
| 2026-05-05 18:57 | 52.09958 | -49.29833 | 34796 ft | 544 kts | 78° |
| 2026-05-05 18:58 | 52.11618 | -49.17826 | 34798 ft | 543 kts | 78° |
| 2026-05-05 18:58 | 52.13262 | -49.05827 | 34806 ft | 543 kts | 78° |
| 2026-05-05 18:59 | 52.14899 | -48.93783 | 34809 ft | 543 kts | 78° |
| 2026-05-05 18:59 | 52.16513 | -48.81806 | 34812 ft | 543 kts | 78° |
| 2026-05-05 19:00 | 52.18119 | -48.69788 | 34818 ft | 542 kts | 78° |
| 2026-05-05 19:00 | 52.19712 | -48.57772 | 34819 ft | 542 kts | 78° |
| 2026-05-05 19:01 | 52.21283 | -48.45825 | 34824 ft | 541 kts | 79° |
| 2026-05-05 19:01 | 52.22852 | -48.33785 | 34829 ft | 541 kts | 79° |
| 2026-05-05 19:02 | 52.24399 | -48.21818 | 34835 ft | 541 kts | 79° |
| 2026-05-05 19:02 | 52.25939 | -48.09802 | 34840 ft | 540 kts | 79° |
| 2026-05-05 19:03 | 52.27467 | -47.97769 | 34841 ft | 540 kts | 79° |
| 2026-05-05 19:03 | 52.28977 | -47.85775 | 34843 ft | 540 kts | 79° |
| 2026-05-05 19:04 | 52.30467 | -47.73844 | 34856 ft | 540 kts | 79° |
| 2026-05-05 19:04 | 52.31955 | -47.61816 | 34866 ft | 540 kts | 80° |
| 2026-05-05 19:05 | 52.33428 | -47.49809 | 34865 ft | 540 kts | 80° |
| 2026-05-05 19:05 | 52.34899 | -47.37708 | 34867 ft | 540 kts | 80° |
| 2026-05-05 19:06 | 52.36341 | -47.25735 | 34871 ft | 539 kts | 80° |
| 2026-05-05 19:06 | 52.37778 | -47.13691 | 34876 ft | 539 kts | 80° |
| 2026-05-05 19:07 | 52.39210 | -47.01586 | 34875 ft | 539 kts | 81° |
| 2026-05-05 19:07 | 52.40614 | -46.89605 | 34889 ft | 539 kts | 81° |
| 2026-05-05 19:08 | 52.42018 | -46.77508 | 34883 ft | 540 kts | 81° |
| 2026-05-05 19:08 | 52.43404 | -46.65455 | 34893 ft | 540 kts | 81° |
| 2026-05-05 19:09 | 52.44782 | -46.53355 | 34898 ft | 540 kts | 81° |
| 2026-05-05 19:09 | 52.46143 | -46.41292 | 34899 ft | 540 kts | 81° |
| 2026-05-05 19:10 | 52.47495 | -46.29188 | 34901 ft | 540 kts | 81° |
| 2026-05-05 19:10 | 52.48835 | -46.17075 | 34916 ft | 540 kts | 81° |
| 2026-05-05 19:11 | 52.50163 | -46.04956 | 34918 ft | 540 kts | 82° |
| 2026-05-05 19:11 | 52.51483 | -45.92790 | 34916 ft | 540 kts | 82° |
| 2026-05-05 19:12 | 52.52781 | -45.80698 | 34924 ft | 540 kts | 82° |
| 2026-05-05 19:12 | 52.54072 | -45.68550 | 34928 ft | 539 kts | 82° |
| 2026-05-05 19:13 | 52.55353 | -45.56379 | 34933 ft | 539 kts | 82° |
| 2026-05-05 19:13 | 52.56610 | -45.44298 | 34935 ft | 539 kts | 82° |
| 2026-05-05 19:14 | 52.57863 | -45.32143 | 34942 ft | 538 kts | 82° |
| 2026-05-05 19:14 | 52.59096 | -45.20046 | 34946 ft | 538 kts | 82° |
| 2026-05-05 19:15 | 52.60325 | -45.07864 | 34948 ft | 537 kts | 83° |
| 2026-05-05 19:15 | 52.61530 | -44.95790 | 34952 ft | 537 kts | 83° |
| 2026-05-05 19:16 | 52.62730 | -44.83635 | 34962 ft | 537 kts | 83° |
| 2026-05-05 19:16 | 52.63916 | -44.71493 | 34959 ft | 537 kts | 83° |
| 2026-05-05 19:17 | 52.65084 | -44.59392 | 34966 ft | 536 kts | 83° |
| 2026-05-05 19:17 | 52.66240 | -44.47292 | 34973 ft | 536 kts | 83° |
| 2026-05-05 19:18 | 52.67386 | -44.35152 | 34975 ft | 536 kts | 83° |
| 2026-05-05 19:18 | 52.68516 | -44.23053 | 34982 ft | 535 kts | 83° |
| 2026-05-05 19:19 | 52.69633 | -44.10954 | 34981 ft | 535 kts | 84° |
| 2026-05-05 19:19 | 52.70743 | -43.98787 | 34983 ft | 535 kts | 84° |
| 2026-05-05 19:20 | 52.71651 | -43.88732 | 34992 ft | 535 kts | 84° |
| 2026-05-05 19:20 | 52.72735 | -43.76588 | 34996 ft | 535 kts | 84° |
| 2026-05-05 19:21 | 52.73981 | -43.62447 | 35002 ft | 534 kts | 84° |
| 2026-05-05 19:21 | 52.74859 | -43.52359 | 35007 ft | 534 kts | 84° |
| 2026-05-05 19:22 | 52.75909 | -43.40169 | 35013 ft | 534 kts | 84° |
| 2026-05-05 19:22 | 52.76939 | -43.28059 | 35016 ft | 534 kts | 84° |
| 2026-05-05 19:23 | 52.77956 | -43.15944 | 35018 ft | 533 kts | 84° |
| 2026-05-05 19:23 | 52.78965 | -43.03771 | 35022 ft | 533 kts | 85° |
| 2026-05-05 19:24 | 52.79954 | -42.91691 | 35031 ft | 533 kts | 85° |
| 2026-05-05 19:24 | 52.80935 | -42.79557 | 35029 ft | 533 kts | 85° |
| 2026-05-05 19:25 | 52.81902 | -42.67423 | 35032 ft | 532 kts | 85° |
| 2026-05-05 19:25 | 52.82857 | -42.55294 | 35038 ft | 532 kts | 85° |
| 2026-05-05 19:26 | 52.83802 | -42.43113 | 35041 ft | 532 kts | 85° |
| 2026-05-05 19:26 | 52.84728 | -42.31030 | 35042 ft | 531 kts | 85° |
| 2026-05-05 19:27 | 52.85645 | -42.18883 | 35053 ft | 531 kts | 85° |
| 2026-05-05 19:27 | 52.86547 | -42.06779 | 35055 ft | 530 kts | 85° |
| 2026-05-05 19:28 | 52.87436 | -41.94673 | 35060 ft | 530 kts | 86° |
| 2026-05-05 19:28 | 52.88311 | -41.82587 | 35068 ft | 530 kts | 86° |
| 2026-05-05 19:29 | 52.89172 | -41.70513 | 35066 ft | 530 kts | 86° |
| 2026-05-05 19:29 | 52.90027 | -41.58347 | 35071 ft | 529 kts | 86° |
| 2026-05-05 19:30 | 52.90864 | -41.46276 | 35073 ft | 529 kts | 86° |
| 2026-05-05 19:30 | 52.91691 | -41.34151 | 35080 ft | 529 kts | 86° |
| 2026-05-05 19:31 | 52.92500 | -41.22096 | 35079 ft | 529 kts | 86° |
| 2026-05-05 19:31 | 52.93301 | -41.09986 | 35084 ft | 529 kts | 86° |
| 2026-05-05 19:32 | 52.94089 | -40.97889 | 35090 ft | 528 kts | 87° |
| 2026-05-05 19:32 | 52.94866 | -40.85752 | 35095 ft | 528 kts | 87° |
| 2026-05-05 19:33 | 52.95628 | -40.73670 | 35095 ft | 528 kts | 87° |
| 2026-05-05 19:33 | 52.96380 | -40.61538 | 35096 ft | 528 kts | 87° |
| 2026-05-05 19:34 | 52.97117 | -40.49438 | 35103 ft | 527 kts | 87° |
| 2026-05-05 19:35 | 52.98196 | -40.31346 | 35102 ft | 526 kts | 87° |
| 2026-05-05 19:35 | 52.98900 | -40.19289 | 35105 ft | 526 kts | 88° |
| 2026-05-05 19:36 | 52.99598 | -40.07146 | 35114 ft | 525 kts | 88° |
| 2026-05-05 19:36 | 53.00592 | -39.95139 | 35115 ft | 528 kts | 80° |
| 2026-05-05 19:37 | 53.02300 | -39.83324 | 35115 ft | 528 kts | 79° |
| 2026-05-05 19:37 | 53.04069 | -39.71444 | 35121 ft | 528 kts | 79° |
| 2026-05-05 19:38 | 53.05781 | -39.59611 | 35124 ft | 527 kts | 79° |
| 2026-05-05 19:38 | 53.07452 | -39.47750 | 35122 ft | 526 kts | 80° |
| 2026-05-05 19:39 | 53.09093 | -39.35959 | 35123 ft | 525 kts | 80° |
| 2026-05-05 19:39 | 53.10723 | -39.24162 | 35132 ft | 525 kts | 80° |
| 2026-05-05 19:40 | 53.12345 | -39.12346 | 35134 ft | 524 kts | 80° |
| 2026-05-05 19:40 | 53.13960 | -39.00496 | 35136 ft | 523 kts | 80° |
| 2026-05-05 19:41 | 53.15559 | -38.88663 | 35134 ft | 523 kts | 81° |
| 2026-05-05 19:41 | 53.17143 | -38.76851 | 35134 ft | 522 kts | 81° |
| 2026-05-05 19:42 | 53.18715 | -38.65031 | 35139 ft | 521 kts | 81° |
| 2026-05-05 19:42 | 53.20266 | -38.53269 | 35139 ft | 521 kts | 81° |
| 2026-05-05 19:43 | 53.21812 | -38.41453 | 35140 ft | 520 kts | 81° |
| 2026-05-05 19:43 | 53.23342 | -38.29659 | 35145 ft | 520 kts | 81° |
| 2026-05-05 19:44 | 53.24857 | -38.17880 | 35143 ft | 519 kts | 81° |
| 2026-05-05 19:44 | 53.26353 | -38.06156 | 35145 ft | 519 kts | 81° |
| 2026-05-05 19:45 | 53.27846 | -37.94353 | 35147 ft | 519 kts | 81° |
| 2026-05-05 19:45 | 53.29324 | -37.82572 | 35145 ft | 518 kts | 81° |
| 2026-05-05 19:46 | 53.30791 | -37.70776 | 35143 ft | 518 kts | 82° |
| 2026-05-05 19:46 | 53.32244 | -37.58989 | 35144 ft | 518 kts | 82° |
| 2026-05-05 19:47 | 53.33683 | -37.47213 | 35145 ft | 518 kts | 82° |
| 2026-05-05 19:47 | 53.35118 | -37.35370 | 35150 ft | 518 kts | 82° |
| 2026-05-05 19:48 | 53.36530 | -37.23609 | 35150 ft | 517 kts | 82° |
| 2026-05-05 19:48 | 53.37941 | -37.11760 | 35148 ft | 517 kts | 82° |
| 2026-05-05 19:49 | 53.39333 | -36.99962 | 35159 ft | 517 kts | 82° |
| 2026-05-05 19:49 | 53.40711 | -36.88177 | 35155 ft | 516 kts | 82° |
| 2026-05-05 19:50 | 53.42080 | -36.76349 | 35154 ft | 517 kts | 82° |
| 2026-05-05 19:50 | 53.43440 | -36.64493 | 35385 ft | 519 kts | 82° |
| 2026-05-05 19:50 | 53.44116 | -36.58565 | 35580 ft | 518 kts | 82° |
| 2026-05-05 19:51 | 53.44788 | -36.52640 | 35732 ft | 518 kts | 82° |
| 2026-05-05 19:51 | 53.45460 | -36.46693 | 35860 ft | 519 kts | 82° |
| 2026-05-05 19:51 | 53.46129 | -36.40739 | 35998 ft | 519 kts | 82° |
| 2026-05-05 19:51 | 53.46793 | -36.34798 | 36159 ft | 518 kts | 82° |
| 2026-05-05 19:52 | 53.47456 | -36.28843 | 36305 ft | 519 kts | 82° |
| 2026-05-05 19:52 | 53.48117 | -36.22884 | 36441 ft | 519 kts | 82° |
| 2026-05-05 19:52 | 53.48774 | -36.16920 | 36571 ft | 519 kts | 82° |
| 2026-05-05 19:52 | 53.49420 | -36.11029 | 36685 ft | 519 kts | 82° |
| 2026-05-05 19:53 | 53.50071 | -36.05069 | 36833 ft | 519 kts | 82° |
| 2026-05-05 19:53 | 53.50720 | -35.99097 | 36974 ft | 519 kts | 82° |
| 2026-05-05 19:53 | 53.51364 | -35.93140 | 37059 ft | 519 kts | 82° |
| 2026-05-05 19:54 | 53.52646 | -35.81201 | 37132 ft | 518 kts | 82° |
| 2026-05-05 19:54 | 53.53912 | -35.69289 | 37130 ft | 517 kts | 82° |
| 2026-05-05 19:55 | 53.55164 | -35.57392 | 37133 ft | 516 kts | 82° |
| 2026-05-05 19:55 | 53.56402 | -35.45508 | 37131 ft | 515 kts | 82° |
| 2026-05-05 19:56 | 53.57628 | -35.33622 | 37136 ft | 515 kts | 82° |
| 2026-05-05 19:56 | 53.58839 | -35.21758 | 37135 ft | 514 kts | 83° |
| 2026-05-05 19:57 | 53.60036 | -35.09904 | 37125 ft | 513 kts | 83° |
| 2026-05-05 19:57 | 53.61214 | -34.98116 | 37131 ft | 512 kts | 83° |
| 2026-05-05 19:58 | 53.62385 | -34.86288 | 37123 ft | 511 kts | 83° |
| 2026-05-05 19:58 | 53.63542 | -34.74471 | 37127 ft | 511 kts | 83° |
| 2026-05-05 19:59 | 53.64685 | -34.62663 | 37132 ft | 510 kts | 83° |
| 2026-05-05 19:59 | 53.65818 | -34.50847 | 37133 ft | 510 kts | 83° |
| 2026-05-05 20:00 | 53.66930 | -34.39116 | 37137 ft | 509 kts | 83° |
| 2026-05-05 20:00 | 53.68034 | -34.27342 | 37133 ft | 508 kts | 83° |
| 2026-05-05 20:01 | 53.69127 | -34.15550 | 37146 ft | 508 kts | 83° |
| 2026-05-05 20:01 | 53.70207 | -34.03776 | 37141 ft | 507 kts | 84° |
| 2026-05-05 20:02 | 53.71274 | -33.92006 | 37143 ft | 507 kts | 84° |
| 2026-05-05 20:02 | 53.72328 | -33.80249 | 37148 ft | 506 kts | 84° |
| 2026-05-05 20:03 | 53.73370 | -33.68499 | 37144 ft | 506 kts | 84° |
| 2026-05-05 20:03 | 53.74398 | -33.56756 | 37151 ft | 505 kts | 84° |
| 2026-05-05 20:04 | 53.75417 | -33.44993 | 37145 ft | 505 kts | 84° |
| 2026-05-05 20:04 | 53.76421 | -33.33254 | 37158 ft | 505 kts | 84° |
| 2026-05-05 20:05 | 53.77416 | -33.21492 | 37156 ft | 506 kts | 84° |
| 2026-05-05 20:05 | 53.78399 | -33.09716 | 37162 ft | 506 kts | 84° |
| 2026-05-05 20:06 | 53.79373 | -32.97915 | 37161 ft | 507 kts | 84° |
| 2026-05-05 20:06 | 53.80335 | -32.86109 | 37166 ft | 507 kts | 84° |
| 2026-05-05 20:07 | 53.81283 | -32.74325 | 37170 ft | 507 kts | 84° |
| 2026-05-05 20:07 | 53.82223 | -32.62497 | 37176 ft | 507 kts | 84° |
| 2026-05-05 20:08 | 53.83151 | -32.50665 | 37182 ft | 507 kts | 84° |
| 2026-05-05 20:08 | 53.84068 | -32.38815 | 37180 ft | 507 kts | 84° |
| 2026-05-05 20:09 | 53.84973 | -32.26975 | 37181 ft | 507 kts | 84° |
| 2026-05-05 20:09 | 53.85866 | -32.15129 | 37194 ft | 507 kts | 84° |
| 2026-05-05 20:10 | 53.86747 | -32.03277 | 37185 ft | 507 kts | 84° |
| 2026-05-05 20:10 | 53.87617 | -31.91423 | 37203 ft | 507 kts | 84° |
| 2026-05-05 20:11 | 53.88475 | -31.79566 | 37198 ft | 507 kts | 84° |
| 2026-05-05 20:11 | 53.89317 | -31.67756 | 37206 ft | 507 kts | 84° |
| 2026-05-05 20:12 | 53.90152 | -31.55880 | 37209 ft | 507 kts | 84° |
| 2026-05-05 20:12 | 53.90976 | -31.43995 | 37211 ft | 507 kts | 84° |
| 2026-05-05 20:13 | 53.91652 | -31.34104 | 37214 ft | 507 kts | 84° |
| 2026-05-05 20:13 | 53.92454 | -31.22210 | 37219 ft | 508 kts | 84° |
| 2026-05-05 20:14 | 53.93245 | -31.10303 | 37217 ft | 508 kts | 84° |
| 2026-05-05 20:14 | 53.94024 | -30.98380 | 37226 ft | 508 kts | 84° |
| 2026-05-05 20:15 | 53.94794 | -30.86429 | 37223 ft | 509 kts | 84° |
| 2026-05-05 20:15 | 53.95552 | -30.74475 | 37230 ft | 509 kts | 84° |
| 2026-05-05 20:16 | 53.96298 | -30.62507 | 37229 ft | 510 kts | 84° |
| 2026-05-05 20:16 | 53.97028 | -30.50607 | 37231 ft | 510 kts | 84° |
| 2026-05-05 20:17 | 53.97752 | -30.38617 | 37238 ft | 510 kts | 84° |
| 2026-05-05 20:17 | 53.98464 | -30.26619 | 37237 ft | 510 kts | 84° |
| 2026-05-05 20:18 | 53.99165 | -30.14603 | 37234 ft | 510 kts | 84° |
| 2026-05-05 20:18 | 53.99863 | -30.02597 | 37239 ft | 510 kts | 83° |
| 2026-05-05 20:19 | 54.01209 | -29.90773 | 37247 ft | 510 kts | 76° |
| 2026-05-05 20:19 | 54.02933 | -29.79082 | 37246 ft | 510 kts | 75° |
| 2026-05-05 20:20 | 54.04652 | -29.67378 | 37248 ft | 510 kts | 75° |
| 2026-05-05 20:20 | 54.06325 | -29.55649 | 37244 ft | 510 kts | 76° |
| 2026-05-05 20:21 | 54.07968 | -29.43904 | 37245 ft | 510 kts | 76° |
| 2026-05-05 20:21 | 54.09587 | -29.32217 | 37249 ft | 510 kts | 76° |
| 2026-05-05 20:22 | 54.11205 | -29.20458 | 37241 ft | 510 kts | 76° |
| 2026-05-05 20:22 | 54.12815 | -29.08681 | 37246 ft | 509 kts | 75° |
| 2026-05-05 20:23 | 54.14410 | -28.96923 | 37247 ft | 509 kts | 76° |
| 2026-05-05 20:23 | 54.15994 | -28.85145 | 37250 ft | 509 kts | 75° |
| 2026-05-05 20:24 | 54.17569 | -28.73346 | 37257 ft | 509 kts | 75° |
| 2026-05-05 20:24 | 54.19131 | -28.61551 | 37253 ft | 509 kts | 75° |
| 2026-05-05 20:25 | 54.20682 | -28.49734 | 37255 ft | 509 kts | 75° |
| 2026-05-05 20:25 | 54.22220 | -28.37924 | 37257 ft | 509 kts | 75° |
| 2026-05-05 20:26 | 54.23738 | -28.26170 | 37256 ft | 509 kts | 75° |
| 2026-05-05 20:26 | 54.25255 | -28.14332 | 37255 ft | 509 kts | 76° |
| 2026-05-05 20:27 | 54.26758 | -28.02497 | 37257 ft | 509 kts | 76° |
| 2026-05-05 20:27 | 54.28249 | -27.90655 | 37257 ft | 509 kts | 76° |
| 2026-05-05 20:28 | 54.29729 | -27.78803 | 37252 ft | 509 kts | 76° |
| 2026-05-05 20:28 | 54.31199 | -27.66930 | 37252 ft | 509 kts | 76° |
| 2026-05-05 20:29 | 54.32656 | -27.55061 | 37256 ft | 509 kts | 76° |
| 2026-05-05 20:29 | 54.34101 | -27.43182 | 37252 ft | 509 kts | 76° |
| 2026-05-05 20:30 | 54.35535 | -27.31292 | 37255 ft | 509 kts | 76° |
| 2026-05-05 20:30 | 54.36950 | -27.19456 | 37252 ft | 509 kts | 76° |
| 2026-05-05 20:31 | 54.38361 | -27.07544 | 37250 ft | 510 kts | 76° |
| 2026-05-05 20:31 | 54.39763 | -26.95607 | 37255 ft | 510 kts | 76° |
| 2026-05-05 20:32 | 54.41152 | -26.83671 | 37248 ft | 510 kts | 76° |
| 2026-05-05 20:32 | 54.42529 | -26.71723 | 37255 ft | 510 kts | 76° |
| 2026-05-05 20:33 | 54.43896 | -26.59751 | 37245 ft | 510 kts | 76° |
| 2026-05-05 20:33 | 54.45250 | -26.47782 | 37254 ft | 510 kts | 76° |
| 2026-05-05 20:34 | 54.46593 | -26.35803 | 37246 ft | 510 kts | 76° |
| 2026-05-05 20:34 | 54.47924 | -26.23816 | 37249 ft | 510 kts | 76° |
| 2026-05-05 20:35 | 54.49245 | -26.11806 | 37240 ft | 510 kts | 76° |
| 2026-05-05 20:35 | 54.50543 | -25.99882 | 37241 ft | 511 kts | 76° |
| 2026-05-05 20:36 | 54.51839 | -25.87868 | 37246 ft | 510 kts | 76° |
| 2026-05-05 20:36 | 54.53124 | -25.75834 | 37242 ft | 511 kts | 76° |
| 2026-05-05 20:37 | 54.54396 | -25.63803 | 37240 ft | 511 kts | 76° |
| 2026-05-05 20:37 | 54.55656 | -25.51767 | 37244 ft | 511 kts | 76° |
| 2026-05-05 20:38 | 54.56905 | -25.39709 | 37243 ft | 511 kts | 76° |
| 2026-05-05 20:38 | 54.58141 | -25.27658 | 37242 ft | 511 kts | 77° |
| 2026-05-05 20:39 | 54.59365 | -25.15598 | 37242 ft | 511 kts | 77° |
| 2026-05-05 20:39 | 54.60576 | -25.03547 | 37241 ft | 510 kts | 77° |
| 2026-05-05 20:40 | 54.61777 | -24.91462 | 37240 ft | 510 kts | 77° |
| 2026-05-05 20:40 | 54.62958 | -24.79451 | 37230 ft | 510 kts | 77° |
| 2026-05-05 20:41 | 54.64135 | -24.67353 | 37243 ft | 510 kts | 77° |
| 2026-05-05 20:41 | 54.65298 | -24.55262 | 37240 ft | 510 kts | 77° |
| 2026-05-05 20:42 | 54.66451 | -24.43152 | 37233 ft | 510 kts | 77° |
| 2026-05-05 20:42 | 54.67592 | -24.31036 | 37234 ft | 510 kts | 77° |
| 2026-05-05 20:43 | 54.68719 | -24.18930 | 37231 ft | 510 kts | 77° |
| 2026-05-05 20:43 | 54.69833 | -24.06818 | 37229 ft | 510 kts | 77° |
| 2026-05-05 20:44 | 54.70928 | -23.94784 | 37230 ft | 510 kts | 77° |
| 2026-05-05 20:44 | 54.72020 | -23.82651 | 37229 ft | 510 kts | 77° |
| 2026-05-05 20:45 | 54.73633 | -23.64457 | 37227 ft | 510 kts | 78° |
| 2026-05-05 20:45 | 54.74692 | -23.52326 | 37228 ft | 510 kts | 78° |
| 2026-05-05 20:46 | 54.75740 | -23.40189 | 37221 ft | 510 kts | 78° |
| 2026-05-05 20:46 | 54.76768 | -23.28126 | 37222 ft | 510 kts | 78° |
| 2026-05-05 20:47 | 54.77792 | -23.15973 | 37223 ft | 510 kts | 78° |
| 2026-05-05 20:47 | 54.78803 | -23.03813 | 37225 ft | 510 kts | 78° |
| 2026-05-05 20:48 | 54.79803 | -22.91644 | 37221 ft | 510 kts | 78° |
| 2026-05-05 20:48 | 54.80790 | -22.79466 | 37217 ft | 510 kts | 78° |
| 2026-05-05 20:49 | 54.81767 | -22.67266 | 37216 ft | 510 kts | 78° |
| 2026-05-05 20:49 | 54.82730 | -22.55072 | 37215 ft | 510 kts | 78° |
| 2026-05-05 20:50 | 54.83522 | -22.44929 | 37222 ft | 510 kts | 78° |
| 2026-05-05 20:50 | 54.84616 | -22.30728 | 37223 ft | 511 kts | 78° |
| 2026-05-05 20:51 | 54.85386 | -22.20600 | 37213 ft | 511 kts | 78° |
| 2026-05-05 20:51 | 54.86305 | -22.08350 | 37222 ft | 511 kts | 79° |
| 2026-05-05 20:52 | 54.87208 | -21.96142 | 37215 ft | 511 kts | 79° |
| 2026-05-05 20:52 | 54.88102 | -21.83897 | 37219 ft | 511 kts | 79° |
| 2026-05-05 20:53 | 54.88981 | -21.71677 | 37219 ft | 511 kts | 79° |
| 2026-05-05 20:53 | 54.89851 | -21.59408 | 37213 ft | 512 kts | 79° |
| 2026-05-05 20:54 | 54.90708 | -21.47133 | 37210 ft | 512 kts | 79° |
| 2026-05-05 20:54 | 54.91551 | -21.34879 | 37208 ft | 512 kts | 79° |
| 2026-05-05 20:55 | 54.92388 | -21.22538 | 37214 ft | 512 kts | 79° |
| 2026-05-05 20:55 | 54.93205 | -21.10297 | 37212 ft | 512 kts | 79° |
| 2026-05-05 20:56 | 54.94016 | -20.97957 | 37214 ft | 512 kts | 79° |
| 2026-05-05 20:56 | 54.94808 | -20.85705 | 37211 ft | 512 kts | 80° |
| 2026-05-05 20:57 | 54.95591 | -20.73404 | 37207 ft | 512 kts | 80° |
| 2026-05-05 20:57 | 54.96364 | -20.61056 | 37212 ft | 512 kts | 80° |
| 2026-05-05 20:58 | 54.97123 | -20.48726 | 37215 ft | 512 kts | 80° |
| 2026-05-05 20:58 | 54.97872 | -20.36364 | 37217 ft | 513 kts | 80° |
| 2026-05-05 20:59 | 54.98606 | -20.24022 | 37214 ft | 513 kts | 80° |
| 2026-05-05 20:59 | 54.99326 | -20.11740 | 37216 ft | 513 kts | 81° |
| 2026-05-05 21:00 | 55.00021 | -19.99393 | 37211 ft | 513 kts | 82° |
| 2026-05-05 21:00 | 55.00343 | -19.86922 | 37213 ft | 515 kts | 84° |
| 2026-05-05 21:01 | 55.00531 | -19.74505 | 37213 ft | 515 kts | 85° |
| 2026-05-05 21:01 | 55.00720 | -19.62003 | 37213 ft | 515 kts | 85° |
| 2026-05-05 21:02 | 55.00921 | -19.49579 | 37217 ft | 515 kts | 85° |
| 2026-05-05 21:02 | 55.01090 | -19.39103 | 37214 ft | 516 kts | 85° |
| 2026-05-05 21:03 | 55.01280 | -19.26648 | 37212 ft | 516 kts | 85° |
| 2026-05-05 21:03 | 55.01455 | -19.14193 | 37206 ft | 516 kts | 85° |
| 2026-05-05 21:04 | 55.01617 | -19.01677 | 37217 ft | 516 kts | 85° |
| 2026-05-05 21:04 | 55.01766 | -18.89168 | 37216 ft | 517 kts | 85° |
| 2026-05-05 21:05 | 55.01902 | -18.76664 | 37216 ft | 517 kts | 86° |
| 2026-05-05 21:05 | 55.02026 | -18.64139 | 37206 ft | 517 kts | 86° |
| 2026-05-05 21:06 | 55.02137 | -18.51608 | 37205 ft | 517 kts | 86° |
| 2026-05-05 21:06 | 55.02235 | -18.39087 | 37215 ft | 517 kts | 86° |
| 2026-05-05 21:07 | 55.02320 | -18.26562 | 37207 ft | 518 kts | 86° |
| 2026-05-05 21:07 | 55.02392 | -18.13992 | 37206 ft | 518 kts | 86° |
| 2026-05-05 21:08 | 55.02452 | -18.01478 | 37206 ft | 518 kts | 86° |
| 2026-05-05 21:08 | 55.02498 | -17.88925 | 37203 ft | 518 kts | 87° |
| 2026-05-05 21:09 | 55.02532 | -17.76365 | 37204 ft | 518 kts | 87° |
| 2026-05-05 21:09 | 55.02552 | -17.63839 | 37202 ft | 519 kts | 87° |
| 2026-05-05 21:10 | 55.02560 | -17.51222 | 37200 ft | 519 kts | 87° |
| 2026-05-05 21:10 | 55.02555 | -17.38687 | 37199 ft | 519 kts | 88° |
| 2026-05-05 21:11 | 55.02537 | -17.26109 | 37202 ft | 520 kts | 88° |
| 2026-05-05 21:11 | 55.02506 | -17.13508 | 37199 ft | 520 kts | 88° |
| 2026-05-05 21:12 | 55.02462 | -17.00884 | 37198 ft | 521 kts | 88° |
| 2026-05-05 21:12 | 55.02404 | -16.88224 | 37201 ft | 521 kts | 88° |
| 2026-05-05 21:13 | 55.02334 | -16.75646 | 37201 ft | 521 kts | 88° |
| 2026-05-05 21:13 | 55.02251 | -16.63039 | 37197 ft | 522 kts | 89° |
| 2026-05-05 21:14 | 55.02154 | -16.50381 | 37197 ft | 522 kts | 89° |
| 2026-05-05 21:14 | 55.02044 | -16.37701 | 37195 ft | 522 kts | 89° |
| 2026-05-05 21:15 | 55.01920 | -16.25042 | 37193 ft | 523 kts | 89° |
| 2026-05-05 21:15 | 55.01785 | -16.12431 | 37192 ft | 523 kts | 89° |
| 2026-05-05 21:16 | 55.01636 | -15.99771 | 37191 ft | 523 kts | 89° |
| 2026-05-05 21:16 | 55.01472 | -15.87061 | 37191 ft | 524 kts | 90° |
| 2026-05-05 21:17 | 55.01296 | -15.74357 | 37191 ft | 524 kts | 90° |
| 2026-05-05 21:17 | 55.01108 | -15.61730 | 37189 ft | 524 kts | 90° |
| 2026-05-05 21:18 | 55.00905 | -15.49026 | 37188 ft | 525 kts | 90° |
| 2026-05-05 21:18 | 55.00689 | -15.36330 | 37180 ft | 525 kts | 90° |
| 2026-05-05 21:19 | 55.00459 | -15.23558 | 37184 ft | 525 kts | 90° |
| 2026-05-05 21:19 | 55.00217 | -15.10854 | 37183 ft | 525 kts | 90° |
| 2026-05-05 21:20 | 54.99968 | -14.98207 | 37185 ft | 525 kts | 90° |
| 2026-05-05 21:20 | 54.99949 | -14.85456 | 37184 ft | 525 kts | 88° |
| 2026-05-05 21:21 | 55.00050 | -14.72761 | 37182 ft | 525 kts | 88° |
| 2026-05-05 21:21 | 55.00103 | -14.59989 | 37185 ft | 525 kts | 88° |
| 2026-05-05 21:22 | 55.00106 | -14.47285 | 37180 ft | 525 kts | 89° |
| 2026-05-05 21:22 | 55.00092 | -14.34627 | 37177 ft | 525 kts | 89° |
| 2026-05-05 21:23 | 55.00068 | -14.21862 | 37176 ft | 525 kts | 89° |
| 2026-05-05 21:23 | 55.00034 | -14.09208 | 37176 ft | 525 kts | 89° |
| 2026-05-05 21:24 | 55.00001 | -13.96454 | 37174 ft | 525 kts | 88° |
| 2026-05-05 21:24 | 55.00167 | -13.83753 | 37176 ft | 525 kts | 87° |
| 2026-05-05 21:25 | 55.00408 | -13.71055 | 37174 ft | 525 kts | 87° |
| 2026-05-05 21:25 | 55.00612 | -13.58352 | 37175 ft | 525 kts | 87° |
| 2026-05-05 21:26 | 55.00776 | -13.45614 | 37175 ft | 526 kts | 88° |
| 2026-05-05 21:26 | 55.00918 | -13.32857 | 37173 ft | 526 kts | 88° |
| 2026-05-05 21:27 | 55.01046 | -13.20181 | 37170 ft | 526 kts | 88° |
| 2026-05-05 21:27 | 55.01165 | -13.07449 | 37172 ft | 526 kts | 88° |
| 2026-05-05 21:28 | 55.01270 | -12.94726 | 37174 ft | 526 kts | 88° |
| 2026-05-05 21:28 | 55.01363 | -12.81921 | 37164 ft | 526 kts | 88° |
| 2026-05-05 21:29 | 55.01442 | -12.69225 | 37162 ft | 527 kts | 88° |
| 2026-05-05 21:29 | 55.01508 | -12.56436 | 37167 ft | 527 kts | 89° |
| 2026-05-05 21:30 | 55.01560 | -12.43687 | 37168 ft | 527 kts | 89° |
| 2026-05-05 21:30 | 55.01599 | -12.30903 | 37169 ft | 527 kts | 89° |
| 2026-05-05 21:31 | 55.01625 | -12.18174 | 37175 ft | 527 kts | 89° |
| 2026-05-05 21:31 | 55.01637 | -12.05426 | 37170 ft | 527 kts | 89° |
| 2026-05-05 21:32 | 55.01636 | -11.92645 | 37162 ft | 528 kts | 89° |
| 2026-05-05 21:32 | 55.01622 | -11.79840 | 37163 ft | 528 kts | 89° |
| 2026-05-05 21:33 | 55.01594 | -11.67100 | 37164 ft | 528 kts | 89° |
| 2026-05-05 21:33 | 55.01553 | -11.54345 | 37161 ft | 528 kts | 90° |
| 2026-05-05 21:34 | 55.01498 | -11.41571 | 37171 ft | 528 kts | 90° |
| 2026-05-05 21:34 | 55.01430 | -11.28755 | 37158 ft | 528 kts | 90° |
| 2026-05-05 21:35 | 55.01349 | -11.15937 | 37171 ft | 528 kts | 90° |
| 2026-05-05 21:35 | 55.01254 | -11.03160 | 37159 ft | 528 kts | 90° |
| 2026-05-05 21:36 | 55.01146 | -10.90438 | 37171 ft | 528 kts | 90° |
| 2026-05-05 21:36 | 55.01025 | -10.77644 | 37166 ft | 528 kts | 90° |
| 2026-05-05 21:37 | 55.00890 | -10.64849 | 37159 ft | 528 kts | 91° |
| 2026-05-05 21:37 | 55.00741 | -10.52070 | 37157 ft | 528 kts | 91° |
| 2026-05-05 21:38 | 55.00580 | -10.39274 | 37157 ft | 528 kts | 91° |
| 2026-05-05 21:38 | 55.00405 | -10.26509 | 37160 ft | 528 kts | 91° |
| 2026-05-05 21:39 | 55.00217 | -10.13692 | 37157 ft | 528 kts | 91° |
| 2026-05-05 21:39 | 54.99964 | -10.00887 | 37156 ft | 528 kts | 94° |
| 2026-05-05 21:40 | 54.98847 | -9.88304 | 37159 ft | 528 kts | 101° |
| 2026-05-05 21:40 | 54.97397 | -9.75793 | 37160 ft | 528 kts | 102° |
| 2026-05-05 21:41 | 54.95945 | -9.63192 | 37162 ft | 528 kts | 101° |
| 2026-05-05 21:41 | 54.94530 | -9.50659 | 37151 ft | 528 kts | 101° |
| 2026-05-05 21:42 | 54.93118 | -9.38149 | 37152 ft | 528 kts | 101° |
| 2026-05-05 21:42 | 54.91687 | -9.25592 | 37154 ft | 528 kts | 101° |
| 2026-05-05 21:43 | 54.90247 | -9.13117 | 37151 ft | 528 kts | 102° |
| 2026-05-05 21:43 | 54.88785 | -9.00572 | 37143 ft | 528 kts | 102° |
| 2026-05-05 21:44 | 54.87320 | -8.88124 | 37147 ft | 528 kts | 102° |
| 2026-05-05 21:44 | 54.85834 | -8.75618 | 37138 ft | 528 kts | 102° |
| 2026-05-05 21:45 | 54.84348 | -8.63223 | 37138 ft | 528 kts | 102° |
| 2026-05-05 21:45 | 54.82840 | -8.50759 | 37139 ft | 527 kts | 102° |
| 2026-05-05 21:46 | 54.81314 | -8.38263 | 37138 ft | 527 kts | 102° |
| 2026-05-05 21:46 | 54.79790 | -8.25894 | 37145 ft | 527 kts | 102° |
| 2026-05-05 21:47 | 54.78241 | -8.13432 | 37148 ft | 527 kts | 103° |
| 2026-05-05 21:47 | 54.76689 | -8.01057 | 37134 ft | 527 kts | 103° |
| 2026-05-05 21:48 | 54.75128 | -7.88718 | 37136 ft | 527 kts | 103° |
| 2026-05-05 21:48 | 54.73548 | -7.76332 | 37130 ft | 527 kts | 103° |
| 2026-05-05 21:49 | 54.71556 | -7.64137 | 37132 ft | 526 kts | 108° |
| 2026-05-05 21:49 | 54.69348 | -7.52072 | 37133 ft | 526 kts | 108° |
| 2026-05-05 21:50 | 54.67132 | -7.40016 | 37120 ft | 526 kts | 108° |
| 2026-05-05 21:50 | 54.64934 | -7.27972 | 37123 ft | 526 kts | 108° |
| 2026-05-05 21:51 | 54.62749 | -7.16007 | 37113 ft | 526 kts | 108° |
| 2026-05-05 21:51 | 54.60543 | -7.03997 | 37113 ft | 525 kts | 108° |
| 2026-05-05 21:52 | 54.57200 | -6.85971 | 37107 ft | 525 kts | 109° |
| 2026-05-05 21:53 | 54.54959 | -6.73985 | 37110 ft | 525 kts | 109° |
| 2026-05-05 21:53 | 54.52724 | -6.62103 | 37104 ft | 525 kts | 109° |
| 2026-05-05 21:54 | 54.50465 | -6.50173 | 37105 ft | 524 kts | 109° |
| 2026-05-05 21:54 | 54.48189 | -6.38226 | 37096 ft | 524 kts | 109° |
| 2026-05-05 21:55 | 54.45904 | -6.26311 | 37111 ft | 524 kts | 109° |
| 2026-05-05 21:55 | 54.43607 | -6.14404 | 37087 ft | 524 kts | 109° |
| 2026-05-05 21:56 | 54.41297 | -6.02504 | 37093 ft | 525 kts | 109° |
| 2026-05-05 21:56 | 54.38977 | -5.90627 | 37102 ft | 525 kts | 109° |
| 2026-05-05 21:57 | 54.36661 | -5.78842 | 37083 ft | 525 kts | 109° |
| 2026-05-05 21:57 | 54.34314 | -5.66972 | 37089 ft | 525 kts | 110° |
| 2026-05-05 21:58 | 54.32354 | -5.57116 | 37078 ft | 525 kts | 110° |
| 2026-05-05 21:58 | 54.29991 | -5.45298 | 37064 ft | 524 kts | 110° |
| 2026-05-05 21:59 | 54.27617 | -5.33496 | 37073 ft | 524 kts | 110° |
| 2026-05-05 21:59 | 54.25236 | -5.21728 | 37066 ft | 523 kts | 110° |
| 2026-05-05 22:00 | 54.22853 | -5.10023 | 37070 ft | 523 kts | 110° |
| 2026-05-05 22:00 | 54.20451 | -4.98291 | 37067 ft | 522 kts | 110° |
| 2026-05-05 22:01 | 54.18047 | -4.86618 | 37072 ft | 522 kts | 110° |
| 2026-05-05 22:01 | 54.15621 | -4.74908 | 37076 ft | 522 kts | 110° |
| 2026-05-05 22:02 | 54.13190 | -4.63242 | 37074 ft | 522 kts | 111° |
| 2026-05-05 22:02 | 54.10746 | -4.51585 | 37076 ft | 522 kts | 111° |
| 2026-05-05 22:03 | 54.08307 | -4.40016 | 37072 ft | 521 kts | 111° |
| 2026-05-05 22:03 | 54.05845 | -4.28401 | 37069 ft | 521 kts | 111° |
| 2026-05-05 22:04 | 54.03372 | -4.16805 | 37068 ft | 521 kts | 111° |
| 2026-05-05 22:04 | 54.00889 | -4.05222 | 37060 ft | 521 kts | 111° |
| 2026-05-05 22:05 | 53.98396 | -3.93657 | 37060 ft | 521 kts | 111° |
| 2026-05-05 22:05 | 53.95893 | -3.82105 | 37061 ft | 521 kts | 111° |
| 2026-05-05 22:06 | 53.93414 | -3.70536 | 37060 ft | 521 kts | 111° |
| 2026-05-05 22:06 | 53.90951 | -3.58987 | 37062 ft | 520 kts | 111° |
| 2026-05-05 22:07 | 53.88481 | -3.47521 | 37060 ft | 520 kts | 111° |
| 2026-05-05 22:07 | 53.85960 | -3.35956 | 37061 ft | 519 kts | 111° |
| 2026-05-05 22:08 | 53.83461 | -3.24568 | 37068 ft | 519 kts | 111° |
| 2026-05-05 22:08 | 53.80940 | -3.13125 | 37062 ft | 518 kts | 111° |
| 2026-05-05 22:09 | 53.78412 | -3.01707 | 37065 ft | 517 kts | 111° |
| 2026-05-05 22:09 | 53.75880 | -2.90334 | 37066 ft | 516 kts | 112° |
| 2026-05-05 22:10 | 53.73357 | -2.79064 | 37061 ft | 516 kts | 112° |
| 2026-05-05 22:10 | 53.70810 | -2.67749 | 37063 ft | 515 kts | 112° |
| 2026-05-05 22:11 | 53.68253 | -2.56446 | 37063 ft | 516 kts | 112° |
| 2026-05-05 22:11 | 53.65683 | -2.45152 | 37058 ft | 515 kts | 112° |
| 2026-05-05 22:12 | 53.63107 | -2.33884 | 37060 ft | 515 kts | 112° |
| 2026-05-05 22:12 | 53.60520 | -2.22622 | 37059 ft | 515 kts | 112° |
| 2026-05-05 22:13 | 53.57907 | -2.11397 | 37058 ft | 515 kts | 112° |
| 2026-05-05 22:13 | 53.55267 | -2.00183 | 37061 ft | 515 kts | 112° |
| 2026-05-05 22:14 | 53.52646 | -1.88958 | 37061 ft | 515 kts | 110° |
| 2026-05-05 22:14 | 53.50591 | -1.77520 | 37071 ft | 515 kts | 107° |
| 2026-05-05 22:15 | 53.48625 | -1.65937 | 37072 ft | 515 kts | 107° |
| 2026-05-05 22:15 | 53.46588 | -1.54411 | 37070 ft | 515 kts | 108° |
| 2026-05-05 22:16 | 53.44506 | -1.42914 | 37075 ft | 514 kts | 108° |
| 2026-05-05 22:16 | 53.42422 | -1.31423 | 37065 ft | 514 kts | 108° |
| 2026-05-05 22:17 | 53.40373 | -1.19933 | 37066 ft | 514 kts | 107° |
| 2026-05-05 22:17 | 53.38314 | -1.08547 | 37063 ft | 513 kts | 108° |
| 2026-05-05 22:18 | 53.36193 | -0.97142 | 37059 ft | 513 kts | 108° |
| 2026-05-05 22:18 | 53.34074 | -0.85747 | 37060 ft | 512 kts | 108° |
| 2026-05-05 22:19 | 53.31955 | -0.74367 | 37052 ft | 512 kts | 108° |
| 2026-05-05 22:19 | 53.29824 | -0.63013 | 37050 ft | 511 kts | 108° |
| 2026-05-05 22:20 | 53.27680 | -0.51671 | 37047 ft | 511 kts | 108° |
| 2026-05-05 22:20 | 53.25532 | -0.40353 | 37049 ft | 511 kts | 108° |
| 2026-05-05 22:21 | 53.23392 | -0.29036 | 37043 ft | 511 kts | 108° |
| 2026-05-05 22:21 | 53.21225 | -0.17767 | 37022 ft | 510 kts | 109° |
| 2026-05-05 22:22 | 53.19039 | -0.06495 | 37023 ft | 510 kts | 109° |
| 2026-05-05 22:22 | 53.16853 | 0.04759 | 37021 ft | 510 kts | 109° |
| 2026-05-05 22:23 | 53.14675 | 0.15947 | 37023 ft | 510 kts | 109° |
| 2026-05-05 22:23 | 53.12475 | 0.27200 | 37017 ft | 510 kts | 109° |
| 2026-05-05 22:24 | 53.10266 | 0.38426 | 37017 ft | 510 kts | 109° |
| 2026-05-05 22:24 | 53.08044 | 0.49651 | 37013 ft | 510 kts | 109° |
| 2026-05-05 22:25 | 53.05812 | 0.60861 | 37021 ft | 510 kts | 109° |
| 2026-05-05 22:25 | 53.03571 | 0.72050 | 37016 ft | 510 kts | 110° |
| 2026-05-05 22:26 | 53.01319 | 0.83234 | 37002 ft | 510 kts | 110° |
| 2026-05-05 22:26 | 52.99072 | 0.94337 | 37006 ft | 510 kts | 110° |
| 2026-05-05 22:27 | 52.97151 | 1.05688 | 37001 ft | 511 kts | 102° |
| 2026-05-05 22:27 | 52.95840 | 1.17279 | 36998 ft | 511 kts | 101° |
| 2026-05-05 22:28 | 52.94543 | 1.28884 | 36995 ft | 511 kts | 102° |
| 2026-05-05 22:28 | 52.93200 | 1.40467 | 36995 ft | 511 kts | 102° |
| 2026-05-05 22:29 | 52.91824 | 1.52033 | 36987 ft | 511 kts | 102° |
| 2026-05-05 22:29 | 52.90435 | 1.63595 | 36989 ft | 511 kts | 102° |
| 2026-05-05 22:30 | 52.89048 | 1.75064 | 36987 ft | 511 kts | 102° |
| 2026-05-05 22:30 | 52.87641 | 1.86605 | 36983 ft | 512 kts | 103° |
| 2026-05-05 22:31 | 52.86221 | 1.98155 | 36980 ft | 512 kts | 103° |
| 2026-05-05 22:31 | 52.84790 | 2.09701 | 36981 ft | 512 kts | 103° |
| 2026-05-05 22:32 | 52.83346 | 2.21247 | 36979 ft | 512 kts | 103° |
| 2026-05-05 22:32 | 52.81893 | 2.32777 | 36973 ft | 512 kts | 103° |
| 2026-05-05 22:33 | 52.80427 | 2.44317 | 36973 ft | 513 kts | 103° |
| 2026-05-05 22:33 | 52.79202 | 2.53876 | 36967 ft | 511 kts | 103° |
| 2026-05-05 22:33 | 52.78464 | 2.59588 | 36885 ft | 500 kts | 103° |
| 2026-05-05 22:34 | 52.77751 | 2.65077 | 36580 ft | 489 kts | 104° |
| 2026-05-05 22:34 | 52.77038 | 2.70549 | 35882 ft | 487 kts | 104° |
| 2026-05-05 22:34 | 52.76322 | 2.76026 | 35070 ft | 488 kts | 104° |
| 2026-05-05 22:34 | 52.75604 | 2.81500 | 34251 ft | 489 kts | 104° |
| 2026-05-05 22:35 | 52.74889 | 2.87042 | 33346 ft | 489 kts | 104° |
| 2026-05-05 22:35 | 52.74189 | 2.92504 | 32259 ft | 492 kts | 104° |
| 2026-05-05 22:35 | 52.73452 | 2.98063 | 31095 ft | 496 kts | 107° |
| 2026-05-05 22:35 | 52.72239 | 3.03368 | 30121 ft | 491 kts | 121° |
| 2026-05-05 22:36 | 52.70537 | 3.08131 | 29362 ft | 484 kts | 124° |
| 2026-05-05 22:36 | 52.68761 | 3.12813 | 28554 ft | 479 kts | 124° |
| 2026-05-05 22:36 | 52.67002 | 3.17508 | 27420 ft | 481 kts | 123° |
| 2026-05-05 22:36 | 52.65277 | 3.22250 | 26352 ft | 484 kts | 122° |
| 2026-05-05 22:37 | 52.63579 | 3.27040 | 25361 ft | 484 kts | 122° |
| 2026-05-05 22:37 | 52.61889 | 3.31856 | 24400 ft | 484 kts | 122° |
| 2026-05-05 22:37 | 52.60222 | 3.36590 | 23517 ft | 484 kts | 122° |
| 2026-05-05 22:37 | 52.58610 | 3.41443 | 22618 ft | 480 kts | 115° |
| 2026-05-05 22:38 | 52.57695 | 3.46671 | 21852 ft | 471 kts | 100° |
| 2026-05-05 22:38 | 52.57220 | 3.51976 | 21067 ft | 467 kts | 99° |
| 2026-05-05 22:38 | 52.56752 | 3.57232 | 20347 ft | 462 kts | 99° |
| 2026-05-05 22:38 | 52.56255 | 3.62421 | 19695 ft | 456 kts | 100° |
| 2026-05-05 22:39 | 52.55739 | 3.67464 | 19069 ft | 451 kts | 100° |
| 2026-05-05 22:39 | 52.55201 | 3.72517 | 18418 ft | 446 kts | 101° |
| 2026-05-05 22:39 | 52.54657 | 3.77512 | 17697 ft | 443 kts | 101° |
| 2026-05-05 22:39 | 52.54112 | 3.82495 | 16975 ft | 439 kts | 101° |
| 2026-05-05 22:40 | 52.53575 | 3.87406 | 16321 ft | 434 kts | 101° |
| 2026-05-05 22:40 | 52.53049 | 3.92203 | 15694 ft | 429 kts | 101° |
| 2026-05-05 22:40 | 52.52502 | 3.97005 | 15097 ft | 422 kts | 103° |
| 2026-05-05 22:40 | 52.51635 | 4.01574 | 14425 ft | 417 kts | 111° |
| 2026-05-05 22:41 | 52.50545 | 4.05918 | 13826 ft | 413 kts | 113° |
| 2026-05-05 22:41 | 52.49415 | 4.10219 | 13197 ft | 409 kts | 114° |
| 2026-05-05 22:41 | 52.48303 | 4.14479 | 12672 ft | 402 kts | 113° |
| 2026-05-05 22:41 | 52.47229 | 4.18677 | 12107 ft | 397 kts | 113° |
| 2026-05-05 22:42 | 52.46182 | 4.22842 | 11493 ft | 393 kts | 112° |
| 2026-05-05 22:42 | 52.45168 | 4.26921 | 10918 ft | 390 kts | 112° |
| 2026-05-05 22:42 | 52.44152 | 4.31033 | 10390 ft | 386 kts | 112° |
| 2026-05-05 22:42 | 52.43167 | 4.35028 | 10290 ft | 370 kts | 112° |
| 2026-05-05 22:43 | 52.42224 | 4.38847 | 10196 ft | 355 kts | 112° |
| 2026-05-05 22:43 | 52.41314 | 4.42526 | 10090 ft | 341 kts | 112° |
| 2026-05-05 22:43 | 52.40440 | 4.46054 | 10010 ft | 328 kts | 112° |
| 2026-05-05 22:43 | 52.39595 | 4.49458 | 9926 ft | 316 kts | 112° |
| 2026-05-05 22:44 | 52.38780 | 4.52733 | 9844 ft | 305 kts | 112° |
| 2026-05-05 22:44 | 52.37993 | 4.55892 | 9752 ft | 294 kts | 112° |
| 2026-05-05 22:44 | 52.37234 | 4.58934 | 9594 ft | 285 kts | 112° |
| 2026-05-05 22:44 | 52.36492 | 4.61906 | 9358 ft | 279 kts | 112° |
| 2026-05-05 22:45 | 52.35766 | 4.64813 | 9037 ft | 275 kts | 112° |
| 2026-05-05 22:45 | 52.35038 | 4.67721 | 8576 ft | 277 kts | 112° |
| 2026-05-05 22:45 | 52.34306 | 4.70637 | 8181 ft | 276 kts | 112° |
| 2026-05-05 22:45 | 52.33577 | 4.73532 | 7823 ft | 273 kts | 113° |
| 2026-05-05 22:46 | 52.32581 | 4.76067 | 7314 ft | 271 kts | 136° |
| 2026-05-05 22:46 | 52.31623 | 4.77448 | 7017 ft | 272 kts | 140° |
| 2026-05-05 22:46 | 52.29728 | 4.80094 | 6554 ft | 269 kts | 139° |
| 2026-05-05 22:46 | 52.28325 | 4.82095 | 6221 ft | 267 kts | 139° |
| 2026-05-05 22:47 | 52.27398 | 4.83427 | 5992 ft | 266 kts | 139° |
| 2026-05-05 22:47 | 52.26014 | 4.85422 | 5635 ft | 265 kts | 138° |
| 2026-05-05 22:47 | 52.24635 | 4.87412 | 5278 ft | 264 kts | 138° |
| 2026-05-05 22:47 | 52.23252 | 4.89353 | 4896 ft | 260 kts | 143° |
| 2026-05-05 22:48 | 52.21570 | 4.90392 | 4327 ft | 264 kts | 176° |
| 2026-05-05 22:48 | 52.19754 | 4.90278 | 3939 ft | 261 kts | 184° |
| 2026-05-05 22:48 | 52.17945 | 4.90090 | 3595 ft | 259 kts | 182° |
| 2026-05-05 22:48 | 52.16151 | 4.89918 | 3247 ft | 258 kts | 182° |
| 2026-05-05 22:49 | 52.14362 | 4.89751 | 2906 ft | 256 kts | 182° |
| 2026-05-05 22:49 | 52.12639 | 4.89109 | 2382 ft | 259 kts | 207° |
| 2026-05-05 22:49 | 52.11359 | 4.87087 | 2151 ft | 263 kts | 240° |
| 2026-05-05 22:49 | 52.10839 | 4.84260 | 2022 ft | 259 kts | 269° |
| 2026-05-05 22:50 | 52.11019 | 4.81416 | 2003 ft | 251 kts | 292° |
| 2026-05-05 22:50 | 52.11912 | 4.79022 | 2012 ft | 247 kts | 314° |
| 2026-05-05 22:50 | 52.13191 | 4.77289 | 2001 ft | 239 kts | 338° |
| 2026-05-05 22:50 | 52.14735 | 4.76746 | 2005 ft | 217 kts | 359° |
| 2026-05-05 22:51 | 52.16181 | 4.76625 | 2002 ft | 199 kts | 1° |
| 2026-05-05 22:51 | 52.17497 | 4.76666 | 2004 ft | 179 kts | 5° |
| 2026-05-05 22:51 | 52.18674 | 4.76769 | 1993 ft | 160 kts | 6° |
| 2026-05-05 22:51 | 52.19766 | 4.76873 | 1813 ft | 155 kts | 6° |
| 2026-05-05 22:52 | 52.20828 | 4.76971 | 1614 ft | 151 kts | 7° |
| 2026-05-05 22:52 | 52.21843 | 4.77065 | 1406 ft | 140 kts | 7° |
| 2026-05-05 22:52 | 52.22787 | 4.77153 | 1246 ft | 133 kts | 7° |
| 2026-05-05 22:52 | 52.23715 | 4.77241 | 1034 ft | 134 kts | 6° |
| 2026-05-05 22:53 | 52.24649 | 4.77327 | 865 ft | 135 kts | 6° |
| 2026-05-05 22:53 | 52.25591 | 4.77412 | 700 ft | 136 kts | 5° |
| 2026-05-05 22:53 | 52.26530 | 4.77501 | 530 ft | 134 kts | 4° |
| 2026-05-05 22:53 | 52.27453 | 4.77594 | 353 ft | 132 kts | 5° |
| 2026-05-05 22:54 | 52.28368 | 4.77683 | 171 ft | 131 kts | 4° |
| 2026-05-05 22:54 | 52.29273 | 4.77750 | 27 ft | 128 kts | 4° |
| 2026-05-05 22:54 | 52.30098 | 4.77828 | 3 ft | 99 kts | 4° |
| 2026-05-05 22:54 | 52.30602 | 4.77876 | 4 ft | 46 kts | 3° |
| 2026-05-05 22:55 | 52.30796 | 4.77889 | 1 ft | 28 kts | 358° |
| 2026-05-05 22:55 | 52.30918 | 4.77835 | 2 ft | 16 kts | 335° |
| 2026-05-05 22:55 | 52.31019 | 4.77753 | 3 ft | 16 kts | 333° |
| 2026-05-05 22:55 | 52.31119 | 4.77670 | 4 ft | 16 kts | 333° |
| 2026-05-05 22:56 | 52.31228 | 4.77641 | 4 ft | 16 kts | 2° |
| 2026-05-05 22:56 | 52.31340 | 4.77650 | 4 ft | 16 kts | 2° |
| 2026-05-05 22:56 | 52.31450 | 4.77630 | 4 ft | 16 kts | 336° |
| 2026-05-05 22:56 | 52.31537 | 4.77516 | 4 ft | 16 kts | 312° |
| 2026-05-05 22:57 | 52.31575 | 4.77347 | 4 ft | 16 kts | 273° |
| 2026-05-05 22:57 | 52.31570 | 4.77165 | 4 ft | 16 kts | 266° |
| 2026-05-05 22:57 | 52.31564 | 4.76981 | 4 ft | 17 kts | 266° |
| 2026-05-05 22:57 | 52.31556 | 4.76760 | 4 ft | 20 kts | 266° |
| 2026-05-05 22:58 | 52.31549 | 4.76534 | 4 ft | 20 kts | 266° |
| 2026-05-05 22:58 | 52.31541 | 4.76310 | 4 ft | 20 kts | 267° |
| 2026-05-05 22:58 | 52.31534 | 4.76084 | 4 ft | 20 kts | 267° |
| 2026-05-05 22:58 | 52.31526 | 4.75857 | 4 ft | 20 kts | 266° |
| 2026-05-05 22:59 | 52.31518 | 4.75630 | 4 ft | 20 kts | 267° |
| 2026-05-05 22:59 | 52.31514 | 4.75514 | 4 ft | 8 kts | 264° |
| 2026-05-05 22:59 | 52.31480 | 4.75451 | 4 ft | 8 kts | 198° |
| 2026-05-05 22:59 | 52.31424 | 4.75444 | 4 ft | 8 kts | 180° |
| 2026-05-05 23:00 | 52.31352 | 4.75512 | 4 ft | 6 kts | 100° |
| 2026-05-05 23:00 | 52.31353 | 4.75579 | 4 ft | 4 kts | 88° |
| 2026-05-05 23:00 | 52.31353 | 4.75582 | 4 ft | 0 kts | 88° |